Time,TemperatureF,DewpointF,PressureIn,WindDirection,WindDirectionDegrees,WindSpeedMPH,WindSpeedGustMPH,Humidity,HourlyPrecipIn,Conditions,Clouds,dailyrainin,SoftwareType,DateUTC
2013-03-09 00:00:00,26.3,19.5,30.22,ESE,103,1.0,1.0,75,0.00,,,0.00,Wunderground v.1.15,2013-03-09 05:00:00,
2013-03-09 00:01:00,26.3,19.5,30.22,ESE,103,0.0,1.0,75,0.00,,,0.00,Wunderground v.1.15,2013-03-09 05:01:00,
2013-03-09 00:02:00,26.3,19.5,30.22,ESE,103,0.0,1.0,75,0.00,,,0.00,Wunderground v.1.15,2013-03-09 05:02:00,
2013-03-09 00:07:00,26.3,19.5,30.22,ESE,103,0.0,1.0,75,0.00,,,0.00,Wunderground v.1.15,2013-03-09 05:07:00,
2013-03-09 00:08:00,26.3,19.5,30.22,ESE,103,0.0,1.0,75,0.00,,,0.00,Wunderground v.1.15,2013-03-09 05:08:00,
2013-03-09 00:09:00,26.3,19.5,30.22,ESE,103,0.0,1.0,75,0.00,,,0.00,Wunderground v.1.15,2013-03-09 05:09:00,
2013-03-09 00:10:00,26.3,19.5,30.22,ESE,103,0.0,0.0,75,0.00,,,0.00,Wunderground v.1.15,2013-03-09 05:10:00,
2013-03-09 00:13:00,26.3,19.5,30.22,ESE,103,0.0,0.0,75,0.00,,,0.00,Wunderground v.1.15,2013-03-09 05:13:00,
2013-03-09 00:14:00,26.1,19.3,30.22,ESE,103,0.0,0.0,75,0.00,,,0.00,Wunderground v.1.15,2013-03-09 05:14:00,
2013-03-09 00:16:00,26.1,19.3,30.22,ESE,103,2.0,2.0,75,0.00,,,0.00,Wunderground v.1.15,2013-03-09 05:16:00,
2013-03-09 00:19:00,26.3,19.5,30.22,ESE,103,1.0,2.0,75,0.00,,,0.00,Wunderground v.1.15,2013-03-09 05:19:00,
2013-03-09 00:22:00,26.3,19.5,30.22,ESE,103,0.0,0.0,75,0.00,,,0.00,Wunderground v.1.15,2013-03-09 05:22:00,
2013-03-09 00:24:00,26.1,19.3,30.22,ESE,103,2.0,2.0,75,0.00,,,0.00,Wunderground v.1.15,2013-03-09 05:24:00,
2013-03-09 00:25:00,26.1,19.3,30.22,ESE,103,1.0,2.0,75,0.00,,,0.00,Wunderground v.1.15,2013-03-09 05:25:00,
2013-03-09 00:27:00,26.1,19.3,30.22,ESE,103,0.0,2.0,75,0.00,,,0.00,Wunderground v.1.15,2013-03-09 05:27:00,
2013-03-09 00:31:00,26.1,19.3,30.22,ESE,103,0.0,0.0,75,0.00,,,0.00,Wunderground v.1.15,2013-03-09 05:31:00,
2013-03-09 00:32:00,26.1,19.3,30.22,ESE,103,0.0,0.0,75,0.00,,,0.00,Wunderground v.1.15,2013-03-09 05:32:00,
2013-03-09 00:33:00,26.1,19.3,30.22,ESE,103,0.0,0.0,75,0.00,,,0.00,Wunderground v.1.15,2013-03-09 05:33:00,
2013-03-09 00:34:00,26.0,19.2,30.22,ESE,103,0.0,0.0,75,0.00,,,0.00,Wunderground v.1.15,2013-03-09 05:34:00,
2013-03-09 00:38:00,26.0,19.2,30.22,ESE,103,0.0,0.0,75,0.00,,,0.00,Wunderground v.1.15,2013-03-09 05:38:00,
2013-03-09 00:41:00,25.8,19.0,30.22,ESE,103,0.0,0.0,75,0.00,,,0.00,Wunderground v.1.15,2013-03-09 05:41:00,
2013-03-09 00:43:00,25.8,19.0,30.22,ESE,103,0.0,0.0,75,0.00,,,0.00,Wunderground v.1.15,2013-03-09 05:43:00,
2013-03-09 00:44:00,25.8,19.0,30.22,ESE,103,0.0,0.0,75,0.00,,,0.00,Wunderground v.1.15,2013-03-09 05:44:00,
2013-03-09 00:47:00,25.7,18.9,30.22,ESE,103,0.0,0.0,75,0.00,,,0.00,Wunderground v.1.15,2013-03-09 05:47:00,
2013-03-09 00:48:00,25.7,18.9,30.22,ESE,103,0.0,0.0,75,0.00,,,0.00,Wunderground v.1.15,2013-03-09 05:48:00,
2013-03-09 00:52:00,25.6,19.1,30.22,ESE,103,0.0,0.0,76,0.00,,,0.00,Wunderground v.1.15,2013-03-09 05:52:00,
2013-03-09 00:53:00,25.6,19.1,30.22,ESE,103,0.0,0.0,76,0.00,,,0.00,Wunderground v.1.15,2013-03-09 05:53:00,
2013-03-09 00:56:00,25.4,18.9,30.22,ESE,103,0.0,0.0,76,0.00,,,0.00,Wunderground v.1.15,2013-03-09 05:56:00,
2013-03-09 01:01:00,25.3,18.8,30.22,ESE,103,0.0,0.0,76,0.00,,,0.00,Wunderground v.1.15,2013-03-09 06:01:00,
2013-03-09 01:02:00,25.3,18.8,30.22,ESE,103,0.0,0.0,76,0.00,,,0.00,Wunderground v.1.15,2013-03-09 06:02:00,
2013-03-09 01:03:00,25.3,18.8,30.22,ESE,103,0.0,0.0,76,0.00,,,0.00,Wunderground v.1.15,2013-03-09 06:03:00,
2013-03-09 01:05:00,25.1,18.6,30.22,ESE,103,0.0,0.0,76,0.00,,,0.00,Wunderground v.1.15,2013-03-09 06:05:00,
2013-03-09 01:08:00,25.1,18.6,30.22,ESE,103,0.0,0.0,76,0.00,,,0.00,Wunderground v.1.15,2013-03-09 06:08:00,
2013-03-09 01:09:00,25.1,18.6,30.22,ESE,103,0.0,0.0,76,0.00,,,0.00,Wunderground v.1.15,2013-03-09 06:09:00,
2013-03-09 01:14:00,25.1,18.6,30.22,ESE,103,0.0,0.0,76,0.00,,,0.00,Wunderground v.1.15,2013-03-09 06:14:00,
2013-03-09 01:15:00,25.1,18.6,30.22,ESE,103,0.0,0.0,76,0.00,,,0.00,Wunderground v.1.15,2013-03-09 06:15:00,
2013-03-09 01:16:00,25.1,18.6,30.22,ESE,103,0.0,0.0,76,0.00,,,0.00,Wunderground v.1.15,2013-03-09 06:16:00,
2013-03-09 01:20:00,25.1,18.6,30.22,ESE,103,0.0,0.0,76,0.00,,,0.00,Wunderground v.1.15,2013-03-09 06:20:00,
2013-03-09 01:21:00,25.1,18.6,30.22,ESE,103,0.0,0.0,76,0.00,,,0.00,Wunderground v.1.15,2013-03-09 06:21:00,
2013-03-09 01:22:00,25.1,18.6,30.22,ESE,103,0.0,0.0,76,0.00,,,0.00,Wunderground v.1.15,2013-03-09 06:22:00,
2013-03-09 01:27:00,25.1,18.6,30.22,ESE,103,0.0,0.0,76,0.00,,,0.00,Wunderground v.1.15,2013-03-09 06:27:00,
2013-03-09 01:29:00,25.1,18.6,30.22,ESE,103,0.0,0.0,76,0.00,,,0.00,Wunderground v.1.15,2013-03-09 06:29:00,
2013-03-09 01:32:00,25.1,18.6,30.22,ESE,103,0.0,0.0,76,0.00,,,0.00,Wunderground v.1.15,2013-03-09 06:32:00,
2013-03-09 01:33:00,25.1,18.6,30.22,ESE,103,0.0,0.0,76,0.00,,,0.00,Wunderground v.1.15,2013-03-09 06:33:00,
2013-03-09 01:35:00,25.0,18.5,30.21,ESE,103,0.0,0.0,76,0.00,,,0.00,Wunderground v.1.15,2013-03-09 06:35:00,
2013-03-09 01:37:00,25.0,18.5,30.21,ESE,103,0.0,0.0,76,0.00,,,0.00,Wunderground v.1.15,2013-03-09 06:37:00,
2013-03-09 01:38:00,25.0,18.5,30.21,ESE,103,0.0,0.0,76,0.00,,,0.00,Wunderground v.1.15,2013-03-09 06:38:00,
2013-03-09 01:40:00,24.8,18.3,30.21,ESE,103,0.0,0.0,76,0.00,,,0.00,Wunderground v.1.15,2013-03-09 06:40:00,
2013-03-09 01:43:00,25.0,18.5,30.21,ESE,103,0.0,1.0,76,0.00,,,0.00,Wunderground v.1.15,2013-03-09 06:43:00,
2013-03-09 01:46:00,24.8,18.3,30.21,ESE,103,0.0,1.0,76,0.00,,,0.00,Wunderground v.1.15,2013-03-09 06:46:00,
2013-03-09 01:47:00,24.8,18.3,30.21,ESE,103,1.0,1.0,76,0.00,,,0.00,Wunderground v.1.15,2013-03-09 06:47:00,
2013-03-09 01:48:00,24.8,18.3,30.21,ESE,103,1.0,1.0,76,0.00,,,0.00,Wunderground v.1.15,2013-03-09 06:48:00,
2013-03-09 01:50:00,24.8,18.6,30.21,ESE,103,0.0,0.0,77,0.00,,,0.00,Wunderground v.1.15,2013-03-09 06:50:00,
2013-03-09 01:52:00,24.8,18.6,30.21,ESE,103,0.0,0.0,77,0.00,,,0.00,Wunderground v.1.15,2013-03-09 06:52:00,
2013-03-09 01:56:00,24.7,18.5,30.21,ESE,103,0.0,0.0,77,0.00,,,0.00,Wunderground v.1.15,2013-03-09 06:56:00,
2013-03-09 01:59:00,24.7,18.8,30.21,ESE,103,0.0,0.0,78,0.00,,,0.00,Wunderground v.1.15,2013-03-09 06:59:00,
2013-03-09 02:00:00,24.7,18.8,30.21,ESE,103,0.0,0.0,78,0.00,,,0.00,Wunderground v.1.15,2013-03-09 07:00:00,
2013-03-09 02:01:00,24.7,18.8,30.21,ESE,103,0.0,0.0,78,0.00,,,0.00,Wunderground v.1.15,2013-03-09 07:01:00,
2013-03-09 02:04:00,24.7,18.8,30.21,ESE,103,0.0,0.0,78,0.00,,,0.00,Wunderground v.1.15,2013-03-09 07:04:00,
2013-03-09 02:05:00,24.7,18.8,30.21,ESE,103,0.0,0.0,78,0.00,,,0.00,Wunderground v.1.15,2013-03-09 07:05:00,
2013-03-09 02:06:00,24.7,18.5,30.21,ESE,103,0.0,1.0,77,0.00,,,0.00,Wunderground v.1.15,2013-03-09 07:06:00,
2013-03-09 02:08:00,24.7,18.5,30.21,ESE,103,0.0,1.0,77,0.00,,,0.00,Wunderground v.1.15,2013-03-09 07:08:00,
2013-03-09 02:09:00,24.7,18.8,30.21,ESE,103,0.0,1.0,78,0.00,,,0.00,Wunderground v.1.15,2013-03-09 07:09:00,
2013-03-09 02:11:00,24.5,18.6,30.21,ESE,103,0.0,0.0,78,0.00,,,0.00,Wunderground v.1.15,2013-03-09 07:11:00,
2013-03-09 02:12:00,24.5,18.6,30.21,ESE,103,0.0,0.0,78,0.00,,,0.00,Wunderground v.1.15,2013-03-09 07:12:00,
2013-03-09 02:13:00,24.5,18.6,30.21,ESE,103,0.0,0.0,78,0.00,,,0.00,Wunderground v.1.15,2013-03-09 07:13:00,
2013-03-09 02:15:00,24.5,18.6,30.21,ESE,103,0.0,0.0,78,0.00,,,0.00,Wunderground v.1.15,2013-03-09 07:15:00,
2013-03-09 02:16:00,24.5,18.6,30.21,ESE,103,0.0,0.0,78,0.00,,,0.00,Wunderground v.1.15,2013-03-09 07:16:00,
2013-03-09 02:17:00,24.5,18.6,30.21,ESE,103,0.0,0.0,78,0.00,,,0.00,Wunderground v.1.15,2013-03-09 07:17:00,
2013-03-09 02:18:00,24.5,18.6,30.20,ESE,103,0.0,0.0,78,0.00,,,0.00,Wunderground v.1.15,2013-03-09 07:18:00,
2013-03-09 02:20:00,24.5,18.6,30.20,ESE,103,0.0,0.0,78,0.00,,,0.00,Wunderground v.1.15,2013-03-09 07:20:00,
2013-03-09 02:21:00,24.5,18.6,30.20,ESE,103,0.0,0.0,78,0.00,,,0.00,Wunderground v.1.15,2013-03-09 07:21:00,
2013-03-09 02:22:00,24.5,18.6,30.20,ESE,103,0.0,0.0,78,0.00,,,0.00,Wunderground v.1.15,2013-03-09 07:22:00,
2013-03-09 02:23:00,24.5,18.6,30.20,ESE,103,0.0,0.0,78,0.00,,,0.00,Wunderground v.1.15,2013-03-09 07:23:00,
2013-03-09 02:26:00,24.5,18.6,30.20,ESE,103,0.0,0.0,78,0.00,,,0.00,Wunderground v.1.15,2013-03-09 07:26:00,
2013-03-09 02:27:00,24.5,18.9,30.20,ESE,103,0.0,0.0,79,0.00,,,0.00,Wunderground v.1.15,2013-03-09 07:27:00,
2013-03-09 02:28:00,24.5,18.9,30.20,ESE,103,0.0,0.0,79,0.00,,,0.00,Wunderground v.1.15,2013-03-09 07:28:00,
2013-03-09 02:29:00,24.5,18.9,30.20,ESE,103,0.0,0.0,79,0.00,,,0.00,Wunderground v.1.15,2013-03-09 07:29:00,
2013-03-09 02:31:00,24.4,18.8,30.20,ESE,103,0.0,1.0,79,0.00,,,0.00,Wunderground v.1.15,2013-03-09 07:31:00,
2013-03-09 02:32:00,24.4,18.8,30.20,ESE,103,0.0,1.0,79,0.00,,,0.00,Wunderground v.1.15,2013-03-09 07:32:00,
2013-03-09 02:34:00,24.4,18.8,30.20,ESE,103,0.0,1.0,79,0.00,,,0.00,Wunderground v.1.15,2013-03-09 07:34:00,
2013-03-09 02:35:00,24.4,18.8,30.20,ESE,103,0.0,1.0,79,0.00,,,0.00,Wunderground v.1.15,2013-03-09 07:35:00,
2013-03-09 02:38:00,24.4,18.8,30.20,ESE,103,0.0,1.0,79,0.00,,,0.00,Wunderground v.1.15,2013-03-09 07:38:00,
2013-03-09 02:39:00,24.4,19.1,30.20,ESE,103,0.0,1.0,80,0.00,,,0.00,Wunderground v.1.15,2013-03-09 07:39:00,
2013-03-09 02:41:00,24.4,19.1,30.20,ESE,103,2.0,2.0,80,0.00,,,0.00,Wunderground v.1.15,2013-03-09 07:41:00,
2013-03-09 02:43:00,24.5,19.2,30.20,ESE,106,2.0,2.0,80,0.00,,,0.00,Wunderground v.1.15,2013-03-09 07:43:00,
2013-03-09 02:45:00,24.5,18.9,30.20,ESE,106,1.0,2.0,79,0.00,,,0.00,Wunderground v.1.15,2013-03-09 07:45:00,
2013-03-09 02:46:00,24.5,19.2,30.20,ESE,106,0.0,2.0,80,0.00,,,0.00,Wunderground v.1.15,2013-03-09 07:46:00,
2013-03-09 02:49:00,24.5,19.2,30.20,ESE,106,0.0,2.0,80,0.00,,,0.00,Wunderground v.1.15,2013-03-09 07:49:00,
2013-03-09 02:50:00,24.5,19.2,30.20,ESE,106,0.0,1.0,80,0.00,,,0.00,Wunderground v.1.15,2013-03-09 07:50:00,
2013-03-09 02:52:00,24.5,19.2,30.20,ESE,106,0.0,1.0,80,0.00,,,0.00,Wunderground v.1.15,2013-03-09 07:52:00,
2013-03-09 02:54:00,24.5,19.2,30.20,ESE,106,0.0,1.0,80,0.00,,,0.00,Wunderground v.1.15,2013-03-09 07:54:00,
2013-03-09 02:55:00,24.5,19.2,30.20,ESE,106,0.0,1.0,80,0.00,,,0.00,Wunderground v.1.15,2013-03-09 07:55:00,
2013-03-09 02:58:00,24.5,19.2,30.20,ESE,106,0.0,1.0,80,0.00,,,0.00,Wunderground v.1.15,2013-03-09 07:58:00,
2013-03-09 02:59:00,24.5,19.2,30.20,ESE,106,0.0,1.0,80,0.00,,,0.00,Wunderground v.1.15,2013-03-09 07:59:00,
2013-03-09 03:00:00,24.4,19.1,30.20,ESE,106,0.0,0.0,80,0.00,,,0.00,Wunderground v.1.15,2013-03-09 08:00:00,
2013-03-09 03:01:00,24.4,18.8,30.20,ESE,106,0.0,0.0,79,0.00,,,0.00,Wunderground v.1.15,2013-03-09 08:01:00,
2013-03-09 03:03:00,24.4,18.8,30.19,ESE,106,0.0,0.0,79,0.00,,,0.00,Wunderground v.1.15,2013-03-09 08:03:00,
2013-03-09 03:04:00,24.4,18.8,30.19,ESE,106,0.0,0.0,79,0.00,,,0.00,Wunderground v.1.15,2013-03-09 08:04:00,
2013-03-09 03:05:00,24.4,18.8,30.19,ESE,106,0.0,0.0,79,0.00,,,0.00,Wunderground v.1.15,2013-03-09 08:05:00,
2013-03-09 03:06:00,24.2,18.6,30.19,ESE,106,1.0,1.0,79,0.00,,,0.00,Wunderground v.1.15,2013-03-09 08:06:00,
2013-03-09 03:10:00,24.2,18.6,30.19,ESE,106,0.0,0.0,79,0.00,,,0.00,Wunderground v.1.15,2013-03-09 08:10:00,
2013-03-09 03:12:00,24.2,18.6,30.19,ESE,106,0.0,0.0,79,0.00,,,0.00,Wunderground v.1.15,2013-03-09 08:12:00,
2013-03-09 03:15:00,24.1,18.5,30.19,ESE,106,0.0,0.0,79,0.00,,,0.00,Wunderground v.1.15,2013-03-09 08:15:00,
2013-03-09 03:16:00,24.1,18.5,30.19,ESE,106,0.0,0.0,79,0.00,,,0.00,Wunderground v.1.15,2013-03-09 08:16:00,
2013-03-09 03:17:00,24.2,18.6,30.19,ESE,106,0.0,0.0,79,0.00,,,0.00,Wunderground v.1.15,2013-03-09 08:17:00,
2013-03-09 03:19:00,24.2,18.6,30.20,ESE,106,0.0,0.0,79,0.00,,,0.00,Wunderground v.1.15,2013-03-09 08:19:00,
2013-03-09 03:20:00,24.2,18.6,30.20,ESE,106,1.0,1.0,79,0.00,,,0.00,Wunderground v.1.15,2013-03-09 08:20:00,
2013-03-09 03:21:00,24.2,18.6,30.20,ESE,106,1.0,1.0,79,0.00,,,0.00,Wunderground v.1.15,2013-03-09 08:21:00,
2013-03-09 03:22:00,24.4,18.5,30.20,ESE,106,0.0,1.0,78,0.00,,,0.00,Wunderground v.1.15,2013-03-09 08:22:00,
2013-03-09 03:25:00,24.4,18.5,30.20,ESE,106,0.0,1.0,78,0.00,,,0.00,Wunderground v.1.15,2013-03-09 08:25:00,
2013-03-09 03:26:00,24.4,18.5,30.20,ESE,106,0.0,1.0,78,0.00,,,0.00,Wunderground v.1.15,2013-03-09 08:26:00,
2013-03-09 03:27:00,24.4,18.5,30.20,ESE,106,0.0,1.0,78,0.00,,,0.00,Wunderground v.1.15,2013-03-09 08:27:00,
2013-03-09 03:31:00,24.5,18.6,30.20,ESE,106,2.0,2.0,78,0.00,,,0.00,Wunderground v.1.15,2013-03-09 08:31:00,
2013-03-09 03:32:00,24.5,18.6,30.20,ESE,106,1.0,2.0,78,0.00,,,0.00,Wunderground v.1.15,2013-03-09 08:32:00,
2013-03-09 03:33:00,24.5,18.6,30.21,ESE,106,1.0,2.0,78,0.00,,,0.00,Wunderground v.1.15,2013-03-09 08:33:00,
2013-03-09 03:37:00,24.5,18.6,30.21,ESE,106,1.0,2.0,78,0.00,,,0.00,Wunderground v.1.15,2013-03-09 08:37:00,
2013-03-09 03:38:00,24.5,18.6,30.21,ESE,106,1.0,2.0,78,0.00,,,0.00,Wunderground v.1.15,2013-03-09 08:38:00,
2013-03-09 03:40:00,24.4,18.2,30.21,ESE,106,0.0,1.0,77,0.00,,,0.00,Wunderground v.1.15,2013-03-09 08:40:00,
2013-03-09 03:43:00,24.4,18.2,30.21,ESE,106,0.0,1.0,77,0.00,,,0.00,Wunderground v.1.15,2013-03-09 08:43:00,
2013-03-09 03:44:00,24.2,18.0,30.21,ESE,106,0.0,1.0,77,0.00,,,0.00,Wunderground v.1.15,2013-03-09 08:44:00,
2013-03-09 03:45:00,24.2,18.0,30.21,ESE,106,0.0,1.0,77,0.00,,,0.00,Wunderground v.1.15,2013-03-09 08:45:00,
2013-03-09 03:48:00,24.2,18.0,30.21,ESE,106,0.0,1.0,77,0.00,,,0.00,Wunderground v.1.15,2013-03-09 08:48:00,
2013-03-09 03:49:00,24.2,18.0,30.21,ESE,106,1.0,1.0,77,0.00,,,0.00,Wunderground v.1.15,2013-03-09 08:49:00,
2013-03-09 03:50:00,23.9,17.7,30.21,ESE,106,0.0,0.0,77,0.00,,,0.00,Wunderground v.1.15,2013-03-09 08:50:00,
2013-03-09 03:54:00,23.8,17.9,30.21,ESE,106,0.0,0.0,78,0.00,,,0.00,Wunderground v.1.15,2013-03-09 08:54:00,
2013-03-09 03:55:00,23.8,17.9,30.21,ESE,106,0.0,0.0,78,0.00,,,0.00,Wunderground v.1.15,2013-03-09 08:55:00,
2013-03-09 03:56:00,23.8,17.9,30.21,ESE,106,0.0,0.0,78,0.00,,,0.00,Wunderground v.1.15,2013-03-09 08:56:00,
2013-03-09 03:59:00,23.8,17.9,30.21,ESE,106,0.0,1.0,78,0.00,,,0.00,Wunderground v.1.15,2013-03-09 08:59:00,
2013-03-09 04:01:00,23.6,17.7,30.21,ESE,106,0.0,0.0,78,0.00,,,0.00,Wunderground v.1.15,2013-03-09 09:01:00,
2013-03-09 04:02:00,23.6,17.7,30.21,ESE,106,1.0,1.0,78,0.00,,,0.00,Wunderground v.1.15,2013-03-09 09:02:00,
2013-03-09 04:04:00,23.6,17.7,30.21,ESE,106,0.0,1.0,78,0.00,,,0.00,Wunderground v.1.15,2013-03-09 09:04:00,
2013-03-09 04:06:00,23.6,17.7,30.21,ESE,106,0.0,1.0,78,0.00,,,0.00,Wunderground v.1.15,2013-03-09 09:06:00,
2013-03-09 04:07:00,23.6,17.7,30.21,ESE,106,0.0,1.0,78,0.00,,,0.00,Wunderground v.1.15,2013-03-09 09:07:00,
2013-03-09 04:08:00,23.6,17.7,30.21,ESE,106,0.0,1.0,78,0.00,,,0.00,Wunderground v.1.15,2013-03-09 09:08:00,
2013-03-09 04:10:00,23.6,17.7,30.21,ESE,106,0.0,0.0,78,0.00,,,0.00,Wunderground v.1.15,2013-03-09 09:10:00,
2013-03-09 04:11:00,23.6,17.7,30.21,ESE,106,0.0,0.0,78,0.00,,,0.00,Wunderground v.1.15,2013-03-09 09:11:00,
2013-03-09 04:12:00,23.6,17.7,30.21,ESE,106,0.0,0.0,78,0.00,,,0.00,Wunderground v.1.15,2013-03-09 09:12:00,
2013-03-09 04:13:00,23.6,17.7,30.21,ESE,106,0.0,0.0,78,0.00,,,0.00,Wunderground v.1.15,2013-03-09 09:13:00,
2013-03-09 04:15:00,23.6,17.7,30.21,ESE,106,1.0,1.0,78,0.00,,,0.00,Wunderground v.1.15,2013-03-09 09:15:00,
2013-03-09 04:18:00,23.6,17.7,30.21,ESE,106,0.0,2.0,78,0.00,,,0.00,Wunderground v.1.15,2013-03-09 09:18:00,
2013-03-09 04:19:00,23.6,17.7,30.22,ESE,106,1.0,2.0,78,0.00,,,0.00,Wunderground v.1.15,2013-03-09 09:19:00,
2013-03-09 04:20:00,23.6,17.7,30.22,ESE,106,1.0,1.0,78,0.00,,,0.00,Wunderground v.1.15,2013-03-09 09:20:00,
2013-03-09 04:23:00,23.6,17.7,30.22,ESE,106,1.0,1.0,78,0.00,,,0.00,Wunderground v.1.15,2013-03-09 09:23:00,
2013-03-09 04:24:00,23.6,17.7,30.22,ESE,106,0.0,1.0,78,0.00,,,0.00,Wunderground v.1.15,2013-03-09 09:24:00,
2013-03-09 04:25:00,23.8,17.9,30.22,ESE,106,0.0,1.0,78,0.00,,,0.00,Wunderground v.1.15,2013-03-09 09:25:00,
2013-03-09 04:26:00,23.8,17.9,30.22,ESE,106,0.0,1.0,78,0.00,,,0.00,Wunderground v.1.15,2013-03-09 09:26:00,
2013-03-09 04:28:00,23.8,17.9,30.22,ESE,106,0.0,1.0,78,0.00,,,0.00,Wunderground v.1.15,2013-03-09 09:28:00,
2013-03-09 04:29:00,23.8,17.6,30.22,ESE,106,0.0,0.0,77,0.00,,,0.00,Wunderground v.1.15,2013-03-09 09:29:00,
2013-03-09 04:30:00,23.6,17.4,30.22,ESE,106,0.0,0.0,77,0.00,,,0.00,Wunderground v.1.15,2013-03-09 09:30:00,
2013-03-09 04:31:00,23.6,17.4,30.22,ESE,106,0.0,0.0,77,0.00,,,0.00,Wunderground v.1.15,2013-03-09 09:31:00,
2013-03-09 04:34:00,23.6,17.4,30.22,ESE,106,0.0,0.0,77,0.00,,,0.00,Wunderground v.1.15,2013-03-09 09:34:00,
2013-03-09 04:35:00,23.6,17.4,30.22,ESE,106,0.0,0.0,77,0.00,,,0.00,Wunderground v.1.15,2013-03-09 09:35:00,
2013-03-09 04:37:00,23.6,17.4,30.22,ESE,106,0.0,0.0,77,0.00,,,0.00,Wunderground v.1.15,2013-03-09 09:37:00,
2013-03-09 04:39:00,23.5,17.3,30.22,ESE,106,0.0,0.0,77,0.00,,,0.00,Wunderground v.1.15,2013-03-09 09:39:00,
2013-03-09 04:40:00,23.5,17.3,30.22,ESE,106,0.0,0.0,77,0.00,,,0.00,Wunderground v.1.15,2013-03-09 09:40:00,
2013-03-09 04:42:00,23.5,17.3,30.22,ESE,106,0.0,0.0,77,0.00,,,0.00,Wunderground v.1.15,2013-03-09 09:42:00,
2013-03-09 04:44:00,23.5,17.6,30.22,ESE,106,0.0,0.0,78,0.00,,,0.00,Wunderground v.1.15,2013-03-09 09:44:00,
2013-03-09 04:45:00,23.5,17.6,30.22,ESE,106,0.0,0.0,78,0.00,,,0.00,Wunderground v.1.15,2013-03-09 09:45:00,
2013-03-09 04:46:00,23.5,17.6,30.22,ESE,106,0.0,1.0,78,0.00,,,0.00,Wunderground v.1.15,2013-03-09 09:46:00,
2013-03-09 04:49:00,23.5,17.6,30.23,ESE,106,0.0,1.0,78,0.00,,,0.00,Wunderground v.1.15,2013-03-09 09:49:00,
2013-03-09 04:50:00,23.5,17.6,30.23,ESE,106,0.0,0.0,78,0.00,,,0.00,Wunderground v.1.15,2013-03-09 09:50:00,
2013-03-09 04:51:00,23.5,17.6,30.23,ESE,106,0.0,0.0,78,0.00,,,0.00,Wunderground v.1.15,2013-03-09 09:51:00,
2013-03-09 04:52:00,23.5,17.6,30.23,ESE,106,0.0,0.0,78,0.00,,,0.00,Wunderground v.1.15,2013-03-09 09:52:00,
2013-03-09 04:56:00,23.5,17.6,30.23,ESE,106,0.0,0.0,78,0.00,,,0.00,Wunderground v.1.15,2013-03-09 09:56:00,
2013-03-09 04:57:00,23.3,17.5,30.23,ESE,106,0.0,0.0,78,0.00,,,0.00,Wunderground v.1.15,2013-03-09 09:57:00,
2013-03-09 04:59:00,23.3,17.5,30.23,ESE,106,0.0,0.0,78,0.00,,,0.00,Wunderground v.1.15,2013-03-09 09:59:00,
2013-03-09 05:01:00,23.3,17.5,30.23,ESE,106,0.0,0.0,78,0.00,,,0.00,Wunderground v.1.15,2013-03-09 10:01:00,
2013-03-09 05:02:00,23.3,17.5,30.23,ESE,106,0.0,0.0,78,0.00,,,0.00,Wunderground v.1.15,2013-03-09 10:02:00,
2013-03-09 05:05:00,23.5,17.9,30.23,ESE,106,0.0,0.0,79,0.00,,,0.00,Wunderground v.1.15,2013-03-09 10:05:00,
2013-03-09 05:06:00,23.5,17.9,30.23,ESE,106,0.0,0.0,79,0.00,,,0.00,Wunderground v.1.15,2013-03-09 10:06:00,
2013-03-09 05:08:00,23.5,17.9,30.23,ESE,106,0.0,0.0,79,0.00,,,0.00,Wunderground v.1.15,2013-03-09 10:08:00,
2013-03-09 05:09:00,23.5,17.9,30.23,ESE,106,0.0,0.0,79,0.00,,,0.00,Wunderground v.1.15,2013-03-09 10:09:00,
2013-03-09 05:10:00,23.5,17.9,30.23,ESE,106,0.0,0.0,79,0.00,,,0.00,Wunderground v.1.15,2013-03-09 10:10:00,
2013-03-09 05:12:00,23.5,17.6,30.23,ESE,106,0.0,0.0,78,0.00,,,0.00,Wunderground v.1.15,2013-03-09 10:12:00,
2013-03-09 05:14:00,23.5,17.6,30.23,ESE,106,1.0,1.0,78,0.00,,,0.00,Wunderground v.1.15,2013-03-09 10:14:00,
2013-03-09 05:15:00,23.3,17.2,30.23,ESE,106,0.0,1.0,77,0.00,,,0.00,Wunderground v.1.15,2013-03-09 10:15:00,
2013-03-09 05:17:00,23.3,17.2,30.23,ESE,106,0.0,1.0,77,0.00,,,0.00,Wunderground v.1.15,2013-03-09 10:17:00,
2013-03-09 05:19:00,23.3,17.2,30.23,ESE,106,0.0,1.0,77,0.00,,,0.00,Wunderground v.1.15,2013-03-09 10:19:00,
2013-03-09 05:21:00,23.3,17.2,30.23,ESE,106,0.0,0.0,77,0.00,,,0.00,Wunderground v.1.15,2013-03-09 10:21:00,
2013-03-09 05:22:00,23.2,17.1,30.23,ESE,106,0.0,0.0,77,0.00,,,0.00,Wunderground v.1.15,2013-03-09 10:22:00,
2013-03-09 05:23:00,23.2,17.4,30.23,ESE,106,0.0,0.0,78,0.00,,,0.00,Wunderground v.1.15,2013-03-09 10:23:00,
2013-03-09 05:24:00,23.2,17.4,30.23,ESE,106,0.0,0.0,78,0.00,,,0.00,Wunderground v.1.15,2013-03-09 10:24:00,
2013-03-09 05:26:00,23.2,17.4,30.23,ESE,106,0.0,0.0,78,0.00,,,0.00,Wunderground v.1.15,2013-03-09 10:26:00,
2013-03-09 05:28:00,23.2,17.4,30.23,ESE,106,0.0,0.0,78,0.00,,,0.00,Wunderground v.1.15,2013-03-09 10:28:00,
2013-03-09 05:30:00,23.2,17.4,30.23,ESE,106,0.0,0.0,78,0.00,,,0.00,Wunderground v.1.15,2013-03-09 10:30:00,
2013-03-09 05:32:00,23.2,17.1,30.23,ESE,106,0.0,0.0,77,0.00,,,0.00,Wunderground v.1.15,2013-03-09 10:32:00,
2013-03-09 05:33:00,23.2,17.1,30.24,ESE,106,0.0,0.0,77,0.00,,,0.00,Wunderground v.1.15,2013-03-09 10:33:00,
2013-03-09 05:34:00,23.2,17.1,30.24,ESE,106,0.0,0.0,77,0.00,,,0.00,Wunderground v.1.15,2013-03-09 10:34:00,
2013-03-09 05:35:00,23.0,16.9,30.24,ESE,106,0.0,0.0,77,0.00,,,0.00,Wunderground v.1.15,2013-03-09 10:35:00,
2013-03-09 05:37:00,23.0,16.9,30.24,ESE,106,0.0,0.0,77,0.00,,,0.00,Wunderground v.1.15,2013-03-09 10:37:00,
2013-03-09 05:39:00,23.0,16.9,30.24,ESE,106,0.0,0.0,77,0.00,,,0.00,Wunderground v.1.15,2013-03-09 10:39:00,
2013-03-09 05:40:00,22.9,16.8,30.24,ESE,106,0.0,0.0,77,0.00,,,0.00,Wunderground v.1.15,2013-03-09 10:40:00,
2013-03-09 05:43:00,22.9,16.8,30.24,ESE,106,0.0,0.0,77,0.00,,,0.00,Wunderground v.1.15,2013-03-09 10:43:00,
2013-03-09 05:44:00,22.9,16.8,30.24,ESE,106,0.0,0.0,77,0.00,,,0.00,Wunderground v.1.15,2013-03-09 10:44:00,
2013-03-09 05:45:00,22.7,16.6,30.24,ESE,106,0.0,0.0,77,0.00,,,0.00,Wunderground v.1.15,2013-03-09 10:45:00,
2013-03-09 05:46:00,22.7,16.6,30.24,ESE,106,0.0,0.0,77,0.00,,,0.00,Wunderground v.1.15,2013-03-09 10:46:00,
2013-03-09 05:48:00,22.7,16.6,30.24,ESE,106,0.0,0.0,77,0.00,,,0.00,Wunderground v.1.15,2013-03-09 10:48:00,
2013-03-09 05:49:00,22.7,16.9,30.25,ESE,106,0.0,0.0,78,0.00,,,0.00,Wunderground v.1.15,2013-03-09 10:49:00,
2013-03-09 05:50:00,22.5,16.7,30.25,ESE,106,0.0,0.0,78,0.00,,,0.00,Wunderground v.1.15,2013-03-09 10:50:00,
2013-03-09 05:51:00,22.5,16.7,30.25,ESE,106,0.0,0.0,78,0.00,,,0.00,Wunderground v.1.15,2013-03-09 10:51:00,
2013-03-09 05:54:00,22.4,16.3,30.25,ESE,106,0.0,0.0,77,0.00,,,0.00,Wunderground v.1.15,2013-03-09 10:54:00,
2013-03-09 05:55:00,22.4,16.3,30.25,ESE,106,0.0,0.0,77,0.00,,,0.00,Wunderground v.1.15,2013-03-09 10:55:00,
2013-03-09 05:56:00,22.4,16.3,30.25,ESE,106,0.0,0.0,77,0.00,,,0.00,Wunderground v.1.15,2013-03-09 10:56:00,
2013-03-09 05:57:00,22.4,16.3,30.25,ESE,106,0.0,0.0,77,0.00,,,0.00,Wunderground v.1.15,2013-03-09 10:57:00,
2013-03-09 06:00:00,22.2,16.4,30.25,ESE,106,0.0,0.0,78,0.00,,,0.00,Wunderground v.1.15,2013-03-09 11:00:00,
2013-03-09 06:01:00,22.2,16.4,30.25,ESE,106,0.0,0.0,78,0.00,,,0.00,Wunderground v.1.15,2013-03-09 11:01:00,
2013-03-09 06:02:00,22.2,16.4,30.25,ESE,106,0.0,0.0,78,0.00,,,0.00,Wunderground v.1.15,2013-03-09 11:02:00,
2013-03-09 06:05:00,22.2,16.7,30.26,ESE,106,0.0,0.0,79,0.00,,,0.00,Wunderground v.1.15,2013-03-09 11:05:00,
2013-03-09 06:07:00,22.2,16.7,30.26,ESE,106,0.0,0.0,79,0.00,,,0.00,Wunderground v.1.15,2013-03-09 11:07:00,
2013-03-09 06:08:00,22.1,16.6,30.26,ESE,106,0.0,0.0,79,0.00,,,0.00,Wunderground v.1.15,2013-03-09 11:08:00,
2013-03-09 06:10:00,22.1,16.6,30.26,ESE,106,0.0,0.0,79,0.00,,,0.00,Wunderground v.1.15,2013-03-09 11:10:00,
2013-03-09 06:12:00,22.1,16.6,30.26,ESE,106,0.0,0.0,79,0.00,,,0.00,Wunderground v.1.15,2013-03-09 11:12:00,
2013-03-09 06:13:00,22.1,16.6,30.26,ESE,106,0.0,0.0,79,0.00,,,0.00,Wunderground v.1.15,2013-03-09 11:13:00,
2013-03-09 06:15:00,22.1,16.9,30.26,ESE,106,0.0,0.0,80,0.00,,,0.00,Wunderground v.1.15,2013-03-09 11:15:00,
2013-03-09 06:17:00,22.1,16.9,30.26,ESE,106,0.0,0.0,80,0.00,,,0.00,Wunderground v.1.15,2013-03-09 11:17:00,
2013-03-09 06:18:00,22.1,16.9,30.26,ESE,106,0.0,0.0,80,0.00,,,0.00,Wunderground v.1.15,2013-03-09 11:18:00,
2013-03-09 06:21:00,22.1,17.2,30.26,ESE,106,0.0,0.0,81,0.00,,,0.00,Wunderground v.1.15,2013-03-09 11:21:00,
2013-03-09 06:22:00,22.2,17.3,30.26,ESE,106,0.0,0.0,81,0.00,,,0.00,Wunderground v.1.15,2013-03-09 11:22:00,
2013-03-09 06:23:00,22.2,17.3,30.26,ESE,106,0.0,0.0,81,0.00,,,0.00,Wunderground v.1.15,2013-03-09 11:23:00,
2013-03-09 06:24:00,22.2,17.3,30.26,ESE,106,0.0,0.0,81,0.00,,,0.00,Wunderground v.1.15,2013-03-09 11:24:00,
2013-03-09 06:28:00,22.2,17.0,30.26,ESE,106,0.0,1.0,80,0.00,,,0.00,Wunderground v.1.15,2013-03-09 11:28:00,
2013-03-09 06:30:00,22.4,17.5,30.26,ESE,106,0.0,0.0,81,0.00,,,0.00,Wunderground v.1.15,2013-03-09 11:30:00,
2013-03-09 06:33:00,22.4,17.5,30.27,ESE,106,0.0,0.0,81,0.00,,,0.00,Wunderground v.1.15,2013-03-09 11:33:00,
2013-03-09 06:35:00,22.5,17.5,30.27,ESE,106,0.0,0.0,81,0.00,,,0.00,Wunderground v.1.15,2013-03-09 11:35:00,
2013-03-09 06:38:00,22.7,17.7,30.27,ESE,106,0.0,0.0,81,0.00,,,0.00,Wunderground v.1.15,2013-03-09 11:38:00,
2013-03-09 06:39:00,22.7,17.7,30.27,ESE,106,0.0,0.0,81,0.00,,,0.00,Wunderground v.1.15,2013-03-09 11:39:00,
2013-03-09 06:42:00,22.7,17.2,30.27,ESE,106,0.0,0.0,79,0.00,,,0.00,Wunderground v.1.15,2013-03-09 11:42:00,
2013-03-09 06:44:00,22.7,17.2,30.27,ESE,106,0.0,0.0,79,0.00,,,0.00,Wunderground v.1.15,2013-03-09 11:44:00,
2013-03-09 06:46:00,22.7,16.9,30.27,ESE,106,0.0,0.0,78,0.00,,,0.00,Wunderground v.1.15,2013-03-09 11:46:00,
2013-03-09 06:47:00,22.7,16.9,30.27,ESE,106,0.0,0.0,78,0.00,,,0.00,Wunderground v.1.15,2013-03-09 11:47:00,
2013-03-09 06:49:00,22.9,17.1,30.26,ESE,106,0.0,0.0,78,0.00,,,0.00,Wunderground v.1.15,2013-03-09 11:49:00,
2013-03-09 06:51:00,22.9,17.1,30.26,ESE,106,0.0,0.0,78,0.00,,,0.00,Wunderground v.1.15,2013-03-09 11:51:00,
2013-03-09 06:53:00,22.9,17.1,30.26,ESE,106,0.0,0.0,78,0.00,,,0.00,Wunderground v.1.15,2013-03-09 11:53:00,
2013-03-09 06:54:00,22.9,17.1,30.26,ESE,106,0.0,0.0,78,0.00,,,0.00,Wunderground v.1.15,2013-03-09 11:54:00,
2013-03-09 06:55:00,22.9,17.1,30.26,ESE,106,0.0,0.0,78,0.00,,,0.00,Wunderground v.1.15,2013-03-09 11:55:00,
2013-03-09 06:56:00,23.0,17.2,30.26,ESE,106,0.0,0.0,78,0.00,,,0.00,Wunderground v.1.15,2013-03-09 11:56:00,
2013-03-09 06:59:00,23.0,17.2,30.26,ESE,106,0.0,0.0,78,0.00,,,0.00,Wunderground v.1.15,2013-03-09 11:59:00,
2013-03-09 07:00:00,23.0,16.9,30.26,ESE,106,0.0,0.0,77,0.00,,,0.00,Wunderground v.1.15,2013-03-09 12:00:00,
2013-03-09 07:02:00,23.2,17.1,30.26,ESE,106,0.0,0.0,77,0.00,,,0.00,Wunderground v.1.15,2013-03-09 12:02:00,
2013-03-09 07:05:00,23.2,17.4,30.27,ESE,106,0.0,0.0,78,0.00,,,0.00,Wunderground v.1.15,2013-03-09 12:05:00,
2013-03-09 07:07:00,23.3,17.2,30.27,ESE,106,0.0,0.0,77,0.00,,,0.00,Wunderground v.1.15,2013-03-09 12:07:00,
2013-03-09 07:10:00,23.3,17.2,30.27,ESE,106,1.0,2.0,77,0.00,,,0.00,Wunderground v.1.15,2013-03-09 12:10:00,
2013-03-09 07:11:00,23.5,17.3,30.27,ESE,106,0.0,2.0,77,0.00,,,0.00,Wunderground v.1.15,2013-03-09 12:11:00,
2013-03-09 07:13:00,23.5,17.3,30.27,ESE,106,0.0,2.0,77,0.00,,,0.00,Wunderground v.1.15,2013-03-09 12:13:00,
2013-03-09 07:15:00,23.6,17.4,30.27,ESE,106,0.0,2.0,77,0.00,,,0.00,Wunderground v.1.15,2013-03-09 12:15:00,
2013-03-09 07:16:00,23.6,17.4,30.27,ESE,106,0.0,2.0,77,0.00,,,0.00,Wunderground v.1.15,2013-03-09 12:16:00,
2013-03-09 07:17:00,23.6,17.4,30.27,ESE,106,0.0,2.0,77,0.00,,,0.00,Wunderground v.1.15,2013-03-09 12:17:00,
2013-03-09 07:18:00,23.6,17.4,30.27,ESE,106,0.0,2.0,77,0.00,,,0.00,Wunderground v.1.15,2013-03-09 12:18:00,
2013-03-09 07:20:00,23.8,17.6,30.27,ESE,106,0.0,0.0,77,0.00,,,0.00,Wunderground v.1.15,2013-03-09 12:20:00,
2013-03-09 07:22:00,23.8,17.6,30.27,ESE,106,0.0,0.0,77,0.00,,,0.00,Wunderground v.1.15,2013-03-09 12:22:00,
2013-03-09 07:23:00,23.8,17.6,30.27,ESE,106,0.0,0.0,77,0.00,,,0.00,Wunderground v.1.15,2013-03-09 12:23:00,
2013-03-09 07:25:00,23.8,17.6,30.27,ESE,106,0.0,0.0,77,0.00,,,0.00,Wunderground v.1.15,2013-03-09 12:25:00,
2013-03-09 07:28:00,23.9,17.7,30.27,ESE,106,0.0,0.0,77,0.00,,,0.00,Wunderground v.1.15,2013-03-09 12:28:00,
2013-03-09 07:30:00,23.9,17.7,30.27,ESE,106,0.0,0.0,77,0.00,,,0.00,Wunderground v.1.15,2013-03-09 12:30:00,
2013-03-09 07:31:00,24.1,17.9,30.27,ESE,106,0.0,0.0,77,0.00,,,0.00,Wunderground v.1.15,2013-03-09 12:31:00,
2013-03-09 07:33:00,24.1,17.9,30.27,ESE,106,0.0,0.0,77,0.00,,,0.00,Wunderground v.1.15,2013-03-09 12:33:00,
2013-03-09 07:34:00,24.1,17.9,30.27,ESE,106,0.0,0.0,77,0.00,,,0.00,Wunderground v.1.15,2013-03-09 12:34:00,
2013-03-09 07:35:00,24.1,17.9,30.27,ESE,106,0.0,0.0,77,0.00,,,0.00,Wunderground v.1.15,2013-03-09 12:35:00,
2013-03-09 07:36:00,24.1,17.9,30.27,ESE,106,0.0,0.0,77,0.00,,,0.00,Wunderground v.1.15,2013-03-09 12:36:00,
2013-03-09 07:39:00,24.2,18.0,30.27,ESE,106,0.0,0.0,77,0.00,,,0.00,Wunderground v.1.15,2013-03-09 12:39:00,
2013-03-09 07:40:00,24.2,18.0,30.27,ESE,106,0.0,0.0,77,0.00,,,0.00,Wunderground v.1.15,2013-03-09 12:40:00,
2013-03-09 07:41:00,24.2,18.0,30.27,ESE,106,0.0,0.0,77,0.00,,,0.00,Wunderground v.1.15,2013-03-09 12:41:00,
2013-03-09 07:42:00,24.4,18.2,30.27,ESE,106,0.0,0.0,77,0.00,,,0.00,Wunderground v.1.15,2013-03-09 12:42:00,
2013-03-09 07:44:00,24.4,17.9,30.27,ESE,106,0.0,0.0,76,0.00,,,0.00,Wunderground v.1.15,2013-03-09 12:44:00,
2013-03-09 07:45:00,24.4,17.9,30.27,ESE,106,0.0,0.0,76,0.00,,,0.00,Wunderground v.1.15,2013-03-09 12:45:00,
2013-03-09 07:46:00,24.4,17.9,30.27,ESE,106,0.0,0.0,76,0.00,,,0.00,Wunderground v.1.15,2013-03-09 12:46:00,
2013-03-09 07:47:00,24.5,18.0,30.27,ESE,106,0.0,0.0,76,0.00,,,0.00,Wunderground v.1.15,2013-03-09 12:47:00,
2013-03-09 07:50:00,24.5,18.0,30.27,ESE,106,0.0,0.0,76,0.00,,,0.00,Wunderground v.1.15,2013-03-09 12:50:00,
2013-03-09 07:51:00,24.7,18.2,30.27,ESE,106,0.0,0.0,76,0.00,,,0.00,Wunderground v.1.15,2013-03-09 12:51:00,
2013-03-09 07:54:00,24.7,18.2,30.27,ESE,106,0.0,0.0,76,0.00,,,0.00,Wunderground v.1.15,2013-03-09 12:54:00,
2013-03-09 07:56:00,24.8,18.6,30.27,ESE,106,0.0,0.0,77,0.00,,,0.00,Wunderground v.1.15,2013-03-09 12:56:00,
2013-03-09 07:57:00,24.8,18.6,30.27,ESE,106,0.0,0.0,77,0.00,,,0.00,Wunderground v.1.15,2013-03-09 12:57:00,
2013-03-09 08:00:00,25.0,18.8,30.27,ESE,106,0.0,0.0,77,0.00,,,0.00,Wunderground v.1.15,2013-03-09 13:00:00,
2013-03-09 08:02:00,25.1,18.9,30.27,ESE,106,0.0,0.0,77,0.00,,,0.00,Wunderground v.1.15,2013-03-09 13:02:00,
2013-03-09 08:05:00,25.3,19.1,30.27,ESE,106,0.0,0.0,77,0.00,,,0.00,Wunderground v.1.15,2013-03-09 13:05:00,
2013-03-09 08:07:00,25.3,19.1,30.27,ESE,106,0.0,0.0,77,0.00,,,0.00,Wunderground v.1.15,2013-03-09 13:07:00,
2013-03-09 08:08:00,25.4,19.2,30.27,ESE,106,0.0,0.0,77,0.00,,,0.00,Wunderground v.1.15,2013-03-09 13:08:00,
2013-03-09 08:10:00,25.4,18.9,30.27,ESE,106,0.0,0.0,76,0.00,,,0.00,Wunderground v.1.15,2013-03-09 13:10:00,
2013-03-09 08:13:00,25.6,19.1,30.27,ESE,106,0.0,0.0,76,0.00,,,0.00,Wunderground v.1.15,2013-03-09 13:13:00,
2013-03-09 08:16:00,25.7,19.2,30.27,ESE,106,0.0,0.0,76,0.00,,,0.00,Wunderground v.1.15,2013-03-09 13:16:00,
2013-03-09 08:18:00,25.8,19.3,30.27,ESE,106,0.0,0.0,76,0.00,,,0.00,Wunderground v.1.15,2013-03-09 13:18:00,
2013-03-09 08:19:00,25.8,19.3,30.27,ESE,106,0.0,0.0,76,0.00,,,0.00,Wunderground v.1.15,2013-03-09 13:19:00,
2013-03-09 08:21:00,26.0,19.5,30.27,ESE,106,0.0,0.0,76,0.00,,,0.00,Wunderground v.1.15,2013-03-09 13:21:00,
2013-03-09 08:23:00,26.1,19.6,30.27,ESE,106,0.0,0.0,76,0.00,,,0.00,Wunderground v.1.15,2013-03-09 13:23:00,
2013-03-09 08:24:00,26.1,19.3,30.27,ESE,106,0.0,0.0,75,0.00,,,0.00,Wunderground v.1.15,2013-03-09 13:24:00,
2013-03-09 08:26:00,26.3,19.5,30.27,ESE,106,0.0,0.0,75,0.00,,,0.00,Wunderground v.1.15,2013-03-09 13:26:00,
2013-03-09 08:28:00,26.4,19.5,30.27,ESE,106,0.0,0.0,75,0.00,,,0.00,Wunderground v.1.15,2013-03-09 13:28:00,
2013-03-09 08:29:00,26.4,19.5,30.27,ESE,106,0.0,0.0,75,0.00,,,0.00,Wunderground v.1.15,2013-03-09 13:29:00,
2013-03-09 08:31:00,26.6,19.7,30.27,ESE,106,0.0,0.0,75,0.00,,,0.00,Wunderground v.1.15,2013-03-09 13:31:00,
2013-03-09 08:33:00,26.9,20.0,30.27,ESE,106,0.0,0.0,75,0.00,,,0.00,Wunderground v.1.15,2013-03-09 13:33:00,
2013-03-09 08:34:00,26.9,20.0,30.27,ESE,106,0.0,0.0,75,0.00,,,0.00,Wunderground v.1.15,2013-03-09 13:34:00,
2013-03-09 08:35:00,27.0,19.8,30.27,ESE,106,0.0,0.0,74,0.00,,,0.00,Wunderground v.1.15,2013-03-09 13:35:00,
2013-03-09 08:38:00,27.2,19.7,30.27,ESE,106,1.0,1.0,73,0.00,,,0.00,Wunderground v.1.15,2013-03-09 13:38:00,
2013-03-09 08:40:00,27.5,19.7,30.27,ESE,106,0.0,0.0,72,0.00,,,0.00,Wunderground v.1.15,2013-03-09 13:40:00,
2013-03-09 08:44:00,28.1,19.9,30.27,ESE,106,1.0,1.0,71,0.00,,,0.00,Wunderground v.1.15,2013-03-09 13:44:00,
2013-03-09 08:45:00,28.2,20.0,30.27,ESE,106,0.0,1.0,71,0.00,,,0.00,Wunderground v.1.15,2013-03-09 13:45:00,
2013-03-09 08:46:00,28.4,20.2,30.27,ESE,106,0.0,1.0,71,0.00,,,0.00,Wunderground v.1.15,2013-03-09 13:46:00,
2013-03-09 08:49:00,28.7,20.1,30.26,ESE,106,0.0,2.0,70,0.00,,,0.00,Wunderground v.1.15,2013-03-09 13:49:00,
2013-03-09 08:50:00,28.8,20.2,30.26,ESE,106,0.0,0.0,70,0.00,,,0.00,Wunderground v.1.15,2013-03-09 13:50:00,
2013-03-09 08:51:00,29.0,20.4,30.26,ESE,106,1.0,1.0,70,0.00,,,0.00,Wunderground v.1.15,2013-03-09 13:51:00,
2013-03-09 08:53:00,29.0,20.1,30.26,ESE,106,2.0,2.0,69,0.00,,,0.00,Wunderground v.1.15,2013-03-09 13:53:00,
2013-03-09 08:54:00,29.1,20.2,30.26,ESE,106,0.0,2.0,69,0.00,,,0.00,Wunderground v.1.15,2013-03-09 13:54:00,
2013-03-09 08:56:00,29.4,20.5,30.26,ESE,106,1.0,2.0,69,0.00,,,0.00,Wunderground v.1.15,2013-03-09 13:56:00,
2013-03-09 08:57:00,29.4,20.1,30.26,ESE,106,1.0,2.0,68,0.00,,,0.00,Wunderground v.1.15,2013-03-09 13:57:00,
2013-03-09 08:58:00,29.5,20.2,30.26,ESE,106,0.0,2.0,68,0.00,,,0.00,Wunderground v.1.15,2013-03-09 13:58:00,
2013-03-09 09:00:00,29.7,20.1,30.26,ESE,106,0.0,2.0,67,0.00,,,0.00,Wunderground v.1.15,2013-03-09 14:00:00,
2013-03-09 09:01:00,29.8,20.2,30.26,ESE,106,0.0,2.0,67,0.00,,,0.00,Wunderground v.1.15,2013-03-09 14:01:00,
2013-03-09 09:02:00,29.8,20.2,30.26,ESE,106,1.0,2.0,67,0.00,,,0.00,Wunderground v.1.15,2013-03-09 14:02:00,
2013-03-09 09:04:00,30.0,20.4,30.26,ESE,106,0.0,2.0,67,0.00,,,0.00,Wunderground v.1.15,2013-03-09 14:04:00,
2013-03-09 09:05:00,30.1,20.5,30.26,ESE,106,0.0,2.0,67,0.00,,,0.00,Wunderground v.1.15,2013-03-09 14:05:00,
2013-03-09 09:07:00,30.3,20.6,30.26,ESE,106,2.0,2.0,67,0.00,,,0.00,Wunderground v.1.15,2013-03-09 14:07:00,
2013-03-09 09:09:00,30.3,20.3,30.26,ESE,106,0.0,2.0,66,0.00,,,0.00,Wunderground v.1.15,2013-03-09 14:09:00,
2013-03-09 09:10:00,30.4,20.4,30.26,ESE,106,2.0,2.0,66,0.00,,,0.00,Wunderground v.1.15,2013-03-09 14:10:00,
2013-03-09 09:13:00,30.6,20.2,30.26,ESE,106,1.0,3.0,65,0.00,,,0.00,Wunderground v.1.15,2013-03-09 14:13:00,
2013-03-09 09:14:00,30.6,20.6,30.26,ESE,106,2.0,3.0,66,0.00,,,0.00,Wunderground v.1.15,2013-03-09 14:14:00,
2013-03-09 09:16:00,30.7,20.7,30.26,ESE,106,0.0,3.0,66,0.00,,,0.00,Wunderground v.1.15,2013-03-09 14:16:00,
2013-03-09 09:18:00,30.9,20.9,30.26,ESE,106,1.0,3.0,66,0.00,,,0.00,Wunderground v.1.15,2013-03-09 14:18:00,
2013-03-09 09:19:00,30.9,20.5,30.26,ESE,106,0.0,3.0,65,0.00,,,0.00,Wunderground v.1.15,2013-03-09 14:19:00,
2013-03-09 09:21:00,31.0,20.6,30.26,ESE,106,1.0,1.0,65,0.00,,,0.00,Wunderground v.1.15,2013-03-09 14:21:00,
2013-03-09 09:22:00,31.0,20.2,30.26,ESE,106,3.0,3.0,64,0.00,,,0.00,Wunderground v.1.15,2013-03-09 14:22:00,
2013-03-09 09:23:00,31.2,20.4,30.26,ESE,106,1.0,3.0,64,0.00,,,0.00,Wunderground v.1.15,2013-03-09 14:23:00,
2013-03-09 09:24:00,31.2,20.4,30.26,ESE,106,1.0,3.0,64,0.00,,,0.00,Wunderground v.1.15,2013-03-09 14:24:00,
2013-03-09 09:26:00,31.3,20.2,30.26,ESE,106,2.0,3.0,63,0.00,,,0.00,Wunderground v.1.15,2013-03-09 14:26:00,
2013-03-09 09:27:00,31.3,20.2,30.26,ESE,106,2.0,3.0,63,0.00,,,0.00,Wunderground v.1.15,2013-03-09 14:27:00,
2013-03-09 09:29:00,31.5,20.0,30.26,ESE,106,2.0,3.0,62,0.00,,,0.00,Wunderground v.1.15,2013-03-09 14:29:00,
2013-03-09 09:31:00,31.6,20.4,30.26,ESE,103,1.0,2.0,63,0.00,,,0.00,Wunderground v.1.15,2013-03-09 14:31:00,
2013-03-09 09:33:00,31.9,20.3,30.26,ESE,103,1.0,2.0,62,0.00,,,0.00,Wunderground v.1.15,2013-03-09 14:33:00,
2013-03-09 09:35:00,32.2,20.2,30.26,ESE,103,1.0,2.0,61,0.00,,,0.00,Wunderground v.1.15,2013-03-09 14:35:00,
2013-03-09 09:37:00,32.5,20.5,30.26,ESE,103,0.0,2.0,61,0.00,,,0.00,Wunderground v.1.15,2013-03-09 14:37:00,
2013-03-09 09:39:00,32.7,20.7,30.26,ESE,103,0.0,2.0,61,0.00,,,0.00,Wunderground v.1.15,2013-03-09 14:39:00,
2013-03-09 09:40:00,32.8,20.8,30.26,ESE,106,1.0,3.0,61,0.00,,,0.00,Wunderground v.1.15,2013-03-09 14:40:00,
2013-03-09 09:42:00,32.9,20.5,30.26,ESE,103,0.0,3.0,60,0.00,,,0.00,Wunderground v.1.15,2013-03-09 14:42:00,
2013-03-09 09:44:00,33.1,19.9,30.26,ESE,106,2.0,3.0,58,0.00,,,0.00,Wunderground v.1.15,2013-03-09 14:44:00,
2013-03-09 09:45:00,33.2,20.0,30.26,ESE,103,1.0,3.0,58,0.00,,,0.00,Wunderground v.1.15,2013-03-09 14:45:00,
2013-03-09 09:47:00,33.4,20.6,30.26,ESE,103,0.0,3.0,59,0.00,,,0.00,Wunderground v.1.15,2013-03-09 14:47:00,
2013-03-09 09:49:00,33.7,20.5,30.26,ESE,103,2.0,3.0,58,0.00,,,0.00,Wunderground v.1.15,2013-03-09 14:49:00,
2013-03-09 09:50:00,33.7,20.5,30.26,ESE,103,1.0,2.0,58,0.00,,,0.00,Wunderground v.1.15,2013-03-09 14:50:00,
2013-03-09 09:52:00,34.0,20.3,30.26,ESE,103,1.0,2.0,57,0.00,,,0.00,Wunderground v.1.15,2013-03-09 14:52:00,
2013-03-09 09:53:00,34.0,20.8,30.26,ESE,103,0.0,2.0,58,0.00,,,0.00,Wunderground v.1.15,2013-03-09 14:53:00,
2013-03-09 09:55:00,34.3,20.6,30.26,ESE,103,2.0,2.0,57,0.00,,,0.00,Wunderground v.1.15,2013-03-09 14:55:00,
2013-03-09 09:58:00,34.6,20.5,30.26,ESE,103,0.0,3.0,56,0.00,,,0.00,Wunderground v.1.15,2013-03-09 14:58:00,
2013-03-09 10:00:00,35.0,20.9,30.26,ESE,103,1.0,1.0,56,0.00,,,0.00,Wunderground v.1.15,2013-03-09 15:00:00,
2013-03-09 10:02:00,35.2,21.1,30.26,ESE,103,1.0,1.0,56,0.00,,,0.00,Wunderground v.1.15,2013-03-09 15:02:00,
2013-03-09 10:03:00,35.3,20.7,30.26,ESE,103,2.0,3.0,55,0.00,,,0.00,Wunderground v.1.15,2013-03-09 15:03:00,
2013-03-09 10:04:00,35.5,20.9,30.26,ESE,103,1.0,3.0,55,0.00,,,0.00,Wunderground v.1.15,2013-03-09 15:04:00,
2013-03-09 10:06:00,35.8,21.6,30.26,ESE,103,1.0,3.0,56,0.00,,,0.00,Wunderground v.1.15,2013-03-09 15:06:00,
2013-03-09 10:07:00,35.9,21.3,30.26,ESE,103,2.0,3.0,55,0.00,,,0.00,Wunderground v.1.15,2013-03-09 15:07:00,
2013-03-09 10:08:00,36.2,21.6,30.26,ESE,103,0.0,3.0,55,0.00,,,0.00,Wunderground v.1.15,2013-03-09 15:08:00,
2013-03-09 10:10:00,36.3,22.5,30.26,ESE,103,0.0,1.0,57,0.00,,,0.00,Wunderground v.1.15,2013-03-09 15:10:00,
2013-03-09 10:12:00,36.8,22.1,30.26,ESE,103,0.0,1.0,55,0.00,,,0.00,Wunderground v.1.15,2013-03-09 15:12:00,
2013-03-09 10:13:00,37.0,22.3,30.26,ESE,103,1.0,2.0,55,0.00,,,0.00,Wunderground v.1.15,2013-03-09 15:13:00,
2013-03-09 10:14:00,37.0,22.7,30.26,ESE,103,0.0,2.0,56,0.00,,,0.00,Wunderground v.1.15,2013-03-09 15:14:00,
2013-03-09 10:15:00,37.3,23.4,30.26,ESE,103,1.0,2.0,57,0.00,,,0.00,Wunderground v.1.15,2013-03-09 15:15:00,
2013-03-09 10:17:00,37.5,21.9,30.26,ESE,103,2.0,3.0,53,0.00,,,0.00,Wunderground v.1.15,2013-03-09 15:17:00,
2013-03-09 10:18:00,37.6,22.0,30.26,ESE,103,3.0,3.0,53,0.00,,,0.00,Wunderground v.1.15,2013-03-09 15:18:00,
2013-03-09 10:19:00,37.6,22.0,30.26,ESE,103,1.0,3.0,53,0.00,,,0.00,Wunderground v.1.15,2013-03-09 15:19:00,
2013-03-09 10:20:00,37.6,21.5,30.26,ENE,65,1.0,3.0,52,0.00,,,0.00,Wunderground v.1.15,2013-03-09 15:20:00,
2013-03-09 10:22:00,37.6,21.5,30.26,ENE,72,0.0,5.0,52,0.00,,,0.00,Wunderground v.1.15,2013-03-09 15:22:00,
2013-03-09 10:24:00,37.8,22.6,30.26,ENE,65,2.0,5.0,54,0.00,,,0.00,Wunderground v.1.15,2013-03-09 15:24:00,
2013-03-09 10:26:00,38.0,21.9,30.26,ENE,62,1.0,5.0,52,0.00,,,0.00,Wunderground v.1.15,2013-03-09 15:26:00,
2013-03-09 10:28:00,38.0,21.5,30.26,ENE,65,2.0,5.0,51,0.00,,,0.00,Wunderground v.1.15,2013-03-09 15:28:00,
2013-03-09 10:29:00,38.2,22.1,30.26,SSE,147,1.0,5.0,52,0.00,,,0.00,Wunderground v.1.15,2013-03-09 15:29:00,
2013-03-09 10:32:00,38.3,21.3,30.26,East,96,3.0,3.0,50,0.00,,,0.00,Wunderground v.1.15,2013-03-09 15:32:00,
2013-03-09 10:34:00,38.2,20.7,30.26,East,96,2.0,3.0,49,0.00,,,0.00,Wunderground v.1.15,2013-03-09 15:34:00,
2013-03-09 10:35:00,38.2,20.7,30.26,East,89,3.0,5.0,49,0.00,,,0.00,Wunderground v.1.15,2013-03-09 15:35:00,
2013-03-09 10:39:00,38.3,19.8,30.26,East,89,0.0,5.0,47,0.00,,,0.00,Wunderground v.1.15,2013-03-09 15:39:00,
2013-03-09 10:40:00,38.6,20.1,30.26,East,89,0.0,1.0,47,0.00,,,0.00,Wunderground v.1.15,2013-03-09 15:40:00,
2013-03-09 10:41:00,38.8,20.8,30.26,East,89,0.0,1.0,48,0.00,,,0.00,Wunderground v.1.15,2013-03-09 15:41:00,
2013-03-09 10:44:00,39.3,19.2,30.26,East,89,2.0,3.0,44,0.00,,,0.00,Wunderground v.1.15,2013-03-09 15:44:00,
2013-03-09 10:45:00,39.6,17.2,30.26,WSW,241,1.0,3.0,40,0.00,,,0.00,Wunderground v.1.15,2013-03-09 15:45:00,
2013-03-09 10:46:00,39.6,17.2,30.26,WSW,241,0.0,3.0,40,0.00,,,0.00,Wunderground v.1.15,2013-03-09 15:46:00,
2013-03-09 10:47:00,39.9,16.3,30.26,WSW,241,0.0,3.0,38,0.00,,,0.00,Wunderground v.1.15,2013-03-09 15:47:00,
2013-03-09 10:49:00,40.5,16.2,30.26,SSE,155,6.0,6.0,37,0.00,,,0.00,Wunderground v.1.15,2013-03-09 15:49:00,
2013-03-09 10:51:00,40.9,15.3,30.26,SSE,155,0.0,2.0,35,0.00,,,0.00,Wunderground v.1.15,2013-03-09 15:51:00,
2013-03-09 10:52:00,41.2,13.5,30.26,North,0,2.0,3.0,32,0.00,,,0.00,Wunderground v.1.15,2013-03-09 15:52:00,
2013-03-09 10:55:00,41.9,14.1,30.26,North,349,1.0,3.0,32,0.00,,,0.00,Wunderground v.1.15,2013-03-09 15:55:00,
2013-03-09 10:56:00,42.1,14.3,30.26,North,349,1.0,3.0,32,0.00,,,0.00,Wunderground v.1.15,2013-03-09 15:56:00,
2013-03-09 10:57:00,42.2,12.2,30.26,ENE,62,2.0,3.0,29,0.00,,,0.00,Wunderground v.1.15,2013-03-09 15:57:00,
2013-03-09 11:01:00,42.6,12.5,30.26,East,79,1.0,2.0,29,0.00,,,0.00,Wunderground v.1.15,2013-03-09 16:01:00,
2013-03-09 11:02:00,42.6,12.5,30.26,North,0,1.0,2.0,29,0.00,,,0.00,Wunderground v.1.15,2013-03-09 16:02:00,
2013-03-09 11:04:00,42.8,11.1,30.26,NNE,27,1.0,3.0,27,0.00,,,0.00,Wunderground v.1.15,2013-03-09 16:04:00,
2013-03-09 11:06:00,43.1,12.2,30.26,NNE,27,2.0,3.0,28,0.00,,,0.01,Wunderground v.1.15,2013-03-09 16:06:00,
2013-03-09 11:07:00,43.2,12.2,30.26,North,0,8.0,8.0,28,0.00,,,0.01,Wunderground v.1.15,2013-03-09 16:07:00,
2013-03-09 11:08:00,43.2,11.4,30.26,North,349,1.0,8.0,27,0.00,,,0.01,Wunderground v.1.15,2013-03-09 16:08:00,
2013-03-09 11:09:00,43.3,13.9,30.26,South,178,0.0,8.0,30,0.00,,,0.01,Wunderground v.1.15,2013-03-09 16:09:00,
2013-03-09 11:12:00,43.5,11.7,30.26,West,270,2.0,7.0,27,0.00,,,0.01,Wunderground v.1.15,2013-03-09 16:12:00,
2013-03-09 11:13:00,43.5,15.5,30.26,North,354,0.0,7.0,32,0.00,,,0.01,Wunderground v.1.15,2013-03-09 16:13:00,
2013-03-09 11:14:00,43.5,16.9,30.26,North,353,3.0,7.0,34,0.00,,,0.01,Wunderground v.1.15,2013-03-09 16:14:00,
2013-03-09 11:18:00,43.6,13.4,30.26,West,264,0.0,7.0,29,0.00,,,0.01,Wunderground v.1.15,2013-03-09 16:18:00,
2013-03-09 11:19:00,43.8,11.9,30.25,NE,48,1.0,7.0,27,0.00,,,0.01,Wunderground v.1.15,2013-03-09 16:19:00,
2013-03-09 11:23:00,43.9,13.6,30.25,ENE,75,1.0,5.0,29,0.00,,,0.01,Wunderground v.1.15,2013-03-09 16:23:00,
2013-03-09 11:24:00,44.1,12.2,30.25,NE,34,2.0,5.0,27,0.00,,,0.01,Wunderground v.1.15,2013-03-09 16:24:00,
2013-03-09 11:25:00,44.1,12.2,30.25,North,7,0.0,5.0,27,0.00,,,0.01,Wunderground v.1.15,2013-03-09 16:25:00,
2013-03-09 11:28:00,44.2,13.1,30.25,ESE,113,1.0,5.0,28,0.00,,,0.01,Wunderground v.1.15,2013-03-09 16:28:00,
2013-03-09 11:30:00,44.3,12.4,30.25,East,88,0.0,1.0,27,0.00,,,0.01,Wunderground v.1.15,2013-03-09 16:30:00,
2013-03-09 11:33:00,44.8,15.2,30.25,East,88,0.0,1.0,30,0.00,,,0.01,Wunderground v.1.15,2013-03-09 16:33:00,
2013-03-09 11:35:00,45.1,14.7,30.25,East,88,1.0,1.0,29,0.00,,,0.01,Wunderground v.1.15,2013-03-09 16:35:00,
2013-03-09 11:36:00,45.2,14.8,30.25,East,88,0.0,1.0,29,0.00,,,0.01,Wunderground v.1.15,2013-03-09 16:36:00,
2013-03-09 11:38:00,45.4,14.1,30.25,East,88,0.0,1.0,28,0.00,,,0.02,Wunderground v.1.15,2013-03-09 16:38:00,
2013-03-09 11:39:00,45.4,13.3,30.25,East,88,0.0,1.0,27,0.00,,,0.02,Wunderground v.1.15,2013-03-09 16:39:00,
2013-03-09 11:40:00,45.5,15.0,30.25,East,88,2.0,2.0,29,0.00,,,0.02,Wunderground v.1.15,2013-03-09 16:40:00,
2013-03-09 11:41:00,45.5,15.0,30.25,East,86,1.0,2.0,29,0.00,,,0.02,Wunderground v.1.15,2013-03-09 16:41:00,
2013-03-09 11:44:00,45.7,15.2,30.25,WNW,299,0.0,3.0,29,0.00,,,0.02,Wunderground v.1.15,2013-03-09 16:44:00,
2013-03-09 11:46:00,45.8,13.7,30.25,WNW,299,1.0,3.0,27,0.00,,,0.02,Wunderground v.1.15,2013-03-09 16:46:00,
2013-03-09 11:48:00,46.0,13.0,30.24,NNW,332,2.0,3.0,26,0.00,,,0.02,Wunderground v.1.15,2013-03-09 16:48:00,
2013-03-09 11:49:00,46.0,14.7,30.24,NNW,332,1.0,3.0,28,0.00,,,0.02,Wunderground v.1.15,2013-03-09 16:49:00,
2013-03-09 11:50:00,46.1,13.9,30.24,NNW,332,0.0,1.0,27,0.00,,,0.02,Wunderground v.1.15,2013-03-09 16:50:00,
2013-03-09 11:51:00,46.2,14.8,30.24,NE,54,2.0,2.0,28,0.00,,,0.02,Wunderground v.1.15,2013-03-09 16:51:00,
2013-03-09 11:54:00,46.4,15.0,30.24,NW,320,2.0,3.0,28,0.00,,,0.02,Wunderground v.1.15,2013-03-09 16:54:00,
2013-03-09 11:55:00,46.4,12.4,30.24,North,0,2.0,3.0,25,0.00,,,0.03,Wunderground v.1.15,2013-03-09 16:55:00,
2013-03-09 11:56:00,46.4,12.4,30.24,NE,41,2.0,3.0,25,0.00,,,0.03,Wunderground v.1.15,2013-03-09 16:56:00,
2013-03-09 11:59:00,46.5,15.1,30.24,East,79,0.0,3.0,28,0.00,,,0.03,Wunderground v.1.15,2013-03-09 16:59:00,
2013-03-09 12:00:00,46.7,15.3,30.24,SSE,155,2.0,2.0,28,0.00,,,0.03,Wunderground v.1.15,2013-03-09 17:00:00,
2013-03-09 12:01:00,46.5,12.5,30.24,SSE,155,2.0,3.0,25,0.00,,,0.03,Wunderground v.1.15,2013-03-09 17:01:00,
2013-03-09 12:04:00,46.5,15.1,30.23,East,93,1.0,3.0,28,0.00,,,0.03,Wunderground v.1.15,2013-03-09 17:04:00,
2013-03-09 12:05:00,46.5,15.1,30.23,East,93,0.0,3.0,28,0.00,,,0.03,Wunderground v.1.15,2013-03-09 17:05:00,
2013-03-09 12:06:00,46.5,14.3,30.23,East,93,0.0,3.0,27,0.00,,,0.03,Wunderground v.1.15,2013-03-09 17:06:00,
2013-03-09 12:10:00,47.0,13.8,30.23,SE,143,1.0,1.0,26,0.00,,,0.03,Wunderground v.1.15,2013-03-09 17:10:00,
2013-03-09 12:11:00,46.8,13.7,30.23,NE,54,2.0,5.0,26,0.00,,,0.03,Wunderground v.1.15,2013-03-09 17:11:00,
2013-03-09 12:12:00,46.8,13.7,30.23,NE,48,5.0,6.0,26,0.00,,,0.03,Wunderground v.1.15,2013-03-09 17:12:00,
2013-03-09 12:15:00,46.1,13.9,30.23,NE,48,0.0,6.0,27,0.00,,,0.04,Wunderground v.1.15,2013-03-09 17:15:00,
2013-03-09 12:17:00,46.1,13.9,30.23,NNE,20,2.0,6.0,27,0.00,,,0.04,Wunderground v.1.15,2013-03-09 17:17:00,
2013-03-09 12:18:00,46.2,14.0,30.23,NNE,17,1.0,6.0,27,0.00,,,0.04,Wunderground v.1.15,2013-03-09 17:18:00,
2013-03-09 12:21:00,46.8,15.4,30.23,East,89,1.0,2.0,28,0.00,,,0.04,Wunderground v.1.15,2013-03-09 17:21:00,
2013-03-09 12:22:00,47.0,14.7,30.23,East,89,1.0,2.0,27,0.00,,,0.04,Wunderground v.1.15,2013-03-09 17:22:00,
2013-03-09 12:23:00,47.0,14.7,30.23,East,89,2.0,2.0,27,0.00,,,0.04,Wunderground v.1.15,2013-03-09 17:23:00,
2013-03-09 12:24:00,47.1,13.9,30.23,NNE,13,0.0,2.0,26,0.00,,,0.04,Wunderground v.1.15,2013-03-09 17:24:00,
2013-03-09 12:26:00,47.6,14.3,30.23,North,3,1.0,2.0,26,0.00,,,0.04,Wunderground v.1.15,2013-03-09 17:26:00,
2013-03-09 12:28:00,47.6,13.5,30.23,South,191,0.0,3.0,25,0.04,,,0.05,Wunderground v.1.15,2013-03-09 17:28:00,
2013-03-09 12:31:00,47.6,12.5,30.23,North,7,0.0,3.0,24,0.04,,,0.05,Wunderground v.1.15,2013-03-09 17:31:00,
2013-03-09 12:33:00,47.6,14.3,30.23,North,7,1.0,3.0,26,0.04,,,0.05,Wunderground v.1.15,2013-03-09 17:33:00,
2013-03-09 12:36:00,47.7,12.6,30.22,North,6,1.0,3.0,24,0.04,,,0.05,Wunderground v.1.15,2013-03-09 17:36:00,
2013-03-09 12:38:00,47.7,12.6,30.22,NW,308,0.0,3.0,24,0.04,,,0.05,Wunderground v.1.15,2013-03-09 17:38:00,
2013-03-09 12:39:00,47.9,14.6,30.22,NW,308,0.0,3.0,26,0.04,,,0.05,Wunderground v.1.15,2013-03-09 17:39:00,
2013-03-09 12:42:00,48.2,14.0,30.22,NW,308,0.0,1.0,25,0.04,,,0.05,Wunderground v.1.15,2013-03-09 17:42:00,
2013-03-09 12:43:00,48.3,15.0,30.22,NW,308,0.0,1.0,26,0.04,,,0.05,Wunderground v.1.15,2013-03-09 17:43:00,
2013-03-09 12:44:00,48.5,16.8,30.22,NW,308,0.0,1.0,28,0.04,,,0.05,Wunderground v.1.15,2013-03-09 17:44:00,
2013-03-09 12:47:00,48.5,14.2,30.22,East,95,2.0,3.0,25,0.00,,,0.05,Wunderground v.1.15,2013-03-09 17:47:00,
2013-03-09 12:48:00,48.2,16.6,30.21,East,95,2.0,3.0,28,0.00,,,0.05,Wunderground v.1.15,2013-03-09 17:48:00,
2013-03-09 12:49:00,48.0,13.8,30.21,East,95,0.0,3.0,25,0.00,,,0.05,Wunderground v.1.15,2013-03-09 17:49:00,
2013-03-09 12:51:00,48.2,15.7,30.21,East,95,0.0,1.0,27,0.00,,,0.05,Wunderground v.1.15,2013-03-09 17:51:00,
2013-03-09 12:54:00,48.2,15.7,30.21,East,95,2.0,2.0,27,0.00,,,0.05,Wunderground v.1.15,2013-03-09 17:54:00,
2013-03-09 12:56:00,47.9,16.3,30.21,South,182,1.0,3.0,28,0.00,,,0.05,Wunderground v.1.15,2013-03-09 17:56:00,
2013-03-09 12:59:00,47.9,12.8,30.21,SE,124,0.0,3.0,24,0.00,,,0.05,Wunderground v.1.15,2013-03-09 17:59:00,
2013-03-09 13:02:00,48.0,14.7,30.21,NW,311,2.0,3.0,26,0.00,,,0.05,Wunderground v.1.15,2013-03-09 18:02:00,
2013-03-09 13:04:00,48.0,15.6,30.21,NW,313,1.0,3.0,27,0.00,,,0.05,Wunderground v.1.15,2013-03-09 18:04:00,
2013-03-09 13:05:00,48.0,15.6,30.21,NW,313,0.0,3.0,27,0.00,,,0.05,Wunderground v.1.15,2013-03-09 18:05:00,
2013-03-09 13:07:00,48.2,15.7,30.21,West,267,0.0,3.0,27,0.00,,,0.05,Wunderground v.1.15,2013-03-09 18:07:00,
2013-03-09 13:09:00,48.3,13.1,30.21,West,267,0.0,3.0,24,0.00,,,0.05,Wunderground v.1.15,2013-03-09 18:09:00,
2013-03-09 13:10:00,48.5,15.1,30.21,SSW,192,2.0,2.0,26,0.00,,,0.05,Wunderground v.1.15,2013-03-09 18:10:00,
2013-03-09 13:11:00,48.5,14.2,30.21,SSW,192,1.0,2.0,25,0.00,,,0.05,Wunderground v.1.15,2013-03-09 18:11:00,
2013-03-09 13:12:00,48.6,13.4,30.21,NNE,30,3.0,3.0,24,0.00,,,0.05,Wunderground v.1.15,2013-03-09 18:12:00,
2013-03-09 13:14:00,48.5,13.3,30.21,ENE,78,2.0,4.0,24,0.00,,,0.06,Wunderground v.1.15,2013-03-09 18:14:00,
2013-03-09 13:15:00,48.5,13.3,30.21,East,85,0.0,4.0,24,0.00,,,0.06,Wunderground v.1.15,2013-03-09 18:15:00,
2013-03-09 13:16:00,48.3,14.1,30.21,NW,318,1.0,4.0,25,0.00,,,0.06,Wunderground v.1.15,2013-03-09 18:16:00,
2013-03-09 13:18:00,48.5,13.3,30.20,South,174,0.0,4.0,24,0.00,,,0.06,Wunderground v.1.15,2013-03-09 18:18:00,
2013-03-09 13:19:00,48.5,15.1,30.20,South,174,1.0,1.0,26,0.00,,,0.06,Wunderground v.1.15,2013-03-09 18:19:00,
2013-03-09 13:20:00,48.5,16.0,30.20,South,174,2.0,2.0,27,0.00,,,0.06,Wunderground v.1.15,2013-03-09 18:20:00,
2013-03-09 13:21:00,48.5,16.8,30.20,South,174,0.0,2.0,28,0.00,,,0.06,Wunderground v.1.15,2013-03-09 18:21:00,
2013-03-09 13:23:00,48.6,15.2,30.20,South,174,0.0,2.0,26,0.00,,,0.06,Wunderground v.1.15,2013-03-09 18:23:00,
2013-03-09 13:25:00,48.8,15.4,30.20,South,174,0.0,2.0,26,0.00,,,0.06,Wunderground v.1.15,2013-03-09 18:25:00,
2013-03-09 13:27:00,48.9,15.5,30.20,South,174,0.0,2.0,26,0.00,,,0.06,Wunderground v.1.15,2013-03-09 18:27:00,
2013-03-09 13:29:00,49.2,15.7,30.20,South,174,0.0,2.0,26,0.00,,,0.06,Wunderground v.1.15,2013-03-09 18:29:00,
2013-03-09 13:30:00,49.2,13.9,30.20,South,174,0.0,1.0,24,0.00,,,0.06,Wunderground v.1.15,2013-03-09 18:30:00,
2013-03-09 13:31:00,49.4,13.1,30.20,South,174,0.0,1.0,23,0.00,,,0.06,Wunderground v.1.15,2013-03-09 18:31:00,
2013-03-09 13:32:00,49.5,13.2,30.20,South,174,0.0,1.0,23,0.00,,,0.06,Wunderground v.1.15,2013-03-09 18:32:00,
2013-03-09 13:35:00,49.5,15.1,30.20,NW,311,1.0,3.0,25,0.00,,,0.06,Wunderground v.1.15,2013-03-09 18:35:00,
2013-03-09 13:36:00,49.5,14.1,30.20,NW,311,0.0,3.0,24,0.00,,,0.06,Wunderground v.1.15,2013-03-09 18:36:00,
2013-03-09 13:37:00,49.5,14.1,30.20,NW,311,0.0,3.0,24,0.00,,,0.06,Wunderground v.1.15,2013-03-09 18:37:00,
2013-03-09 13:39:00,49.5,15.1,30.20,SSW,203,0.0,3.0,25,0.00,,,0.06,Wunderground v.1.15,2013-03-09 18:39:00,
2013-03-09 13:41:00,49.6,13.3,30.20,NNW,342,4.0,5.0,23,0.00,,,0.06,Wunderground v.1.15,2013-03-09 18:41:00,
2013-03-09 13:42:00,49.5,14.1,30.20,NNW,336,0.0,6.0,24,0.00,,,0.06,Wunderground v.1.15,2013-03-09 18:42:00,
2013-03-09 13:44:00,49.5,16.9,30.20,ENE,72,0.0,6.0,27,0.00,,,0.06,Wunderground v.1.15,2013-03-09 18:44:00,
2013-03-09 13:46:00,49.5,14.1,30.20,ENE,72,1.0,6.0,24,0.00,,,0.06,Wunderground v.1.15,2013-03-09 18:46:00,
2013-03-09 13:47:00,49.4,13.1,30.20,ENE,72,1.0,6.0,23,0.00,,,0.06,Wunderground v.1.15,2013-03-09 18:47:00,
2013-03-09 13:49:00,49.4,13.1,30.20,ENE,72,0.0,6.0,23,0.00,,,0.06,Wunderground v.1.15,2013-03-09 18:49:00,
2013-03-09 13:51:00,49.5,16.0,30.20,ENE,72,1.0,1.0,26,0.00,,,0.06,Wunderground v.1.15,2013-03-09 18:51:00,
2013-03-09 13:52:00,49.5,15.1,30.20,ENE,72,0.0,2.0,25,0.00,,,0.06,Wunderground v.1.15,2013-03-09 18:52:00,
2013-03-09 13:54:00,49.6,14.2,30.20,ENE,72,1.0,2.0,24,0.00,,,0.06,Wunderground v.1.15,2013-03-09 18:54:00,
2013-03-09 13:55:00,49.6,15.2,30.20,ENE,72,0.0,2.0,25,0.00,,,0.06,Wunderground v.1.15,2013-03-09 18:55:00,
2013-03-09 13:56:00,49.6,14.2,30.20,ENE,72,0.0,2.0,24,0.00,,,0.06,Wunderground v.1.15,2013-03-09 18:56:00,
2013-03-09 13:59:00,49.5,16.0,30.20,NW,315,0.0,2.0,26,0.00,,,0.06,Wunderground v.1.15,2013-03-09 18:59:00,
2013-03-09 14:01:00,49.6,16.1,30.20,ENE,65,2.0,2.0,26,0.00,,,0.06,Wunderground v.1.15,2013-03-09 19:01:00,
2013-03-09 14:02:00,49.6,13.3,30.20,ENE,65,1.0,3.0,23,0.00,,,0.06,Wunderground v.1.15,2013-03-09 19:02:00,
2013-03-09 14:05:00,49.6,15.2,30.19,SSE,164,1.0,4.0,25,0.00,,,0.06,Wunderground v.1.15,2013-03-09 19:05:00,
2013-03-09 14:06:00,49.6,15.2,30.19,NE,37,0.0,4.0,25,0.00,,,0.06,Wunderground v.1.15,2013-03-09 19:06:00,
2013-03-09 14:09:00,49.5,16.9,30.19,South,186,2.0,4.0,27,0.00,,,0.06,Wunderground v.1.15,2013-03-09 19:09:00,
2013-03-09 14:11:00,49.5,17.7,30.19,South,186,0.0,2.0,28,0.00,,,0.06,Wunderground v.1.15,2013-03-09 19:11:00,
2013-03-09 14:12:00,49.5,17.7,30.19,NE,40,1.0,2.0,28,0.00,,,0.06,Wunderground v.1.15,2013-03-09 19:12:00,
2013-03-09 14:14:00,49.5,14.1,30.19,NE,48,2.0,3.0,24,0.00,,,0.06,Wunderground v.1.15,2013-03-09 19:14:00,
2013-03-09 14:16:00,49.8,14.4,30.19,South,182,0.0,3.0,24,0.00,,,0.06,Wunderground v.1.15,2013-03-09 19:16:00,
2013-03-09 14:17:00,49.9,14.5,30.19,South,182,1.0,3.0,24,0.00,,,0.06,Wunderground v.1.15,2013-03-09 19:17:00,
2013-03-09 14:19:00,49.9,13.5,30.20,NE,51,3.0,3.0,23,0.00,,,0.06,Wunderground v.1.15,2013-03-09 19:19:00,
2013-03-09 14:22:00,49.6,14.2,30.20,East,79,7.0,7.0,24,0.00,,,0.06,Wunderground v.1.15,2013-03-09 19:22:00,
2013-03-09 14:23:00,49.1,13.8,30.20,ENE,75,5.0,8.0,24,0.00,,,0.06,Wunderground v.1.15,2013-03-09 19:23:00,
2013-03-09 14:24:00,49.1,13.8,30.20,ENE,75,2.0,8.0,24,0.00,,,0.06,Wunderground v.1.15,2013-03-09 19:24:00,
2013-03-09 14:28:00,48.8,14.5,30.20,ENE,71,3.0,8.0,25,0.00,,,0.06,Wunderground v.1.15,2013-03-09 19:28:00,
2013-03-09 14:29:00,48.8,15.4,30.20,SE,141,1.0,8.0,26,0.00,,,0.06,Wunderground v.1.15,2013-03-09 19:29:00,
2013-03-09 14:30:00,48.9,18.0,30.20,SE,141,1.0,3.0,29,0.00,,,0.06,Wunderground v.1.15,2013-03-09 19:30:00,
2013-03-09 14:31:00,49.1,18.2,30.20,SE,141,2.0,3.0,29,0.00,,,0.06,Wunderground v.1.15,2013-03-09 19:31:00,
2013-03-09 14:33:00,49.4,14.1,30.20,ESE,109,0.0,3.0,24,0.00,,,0.06,Wunderground v.1.15,2013-03-09 19:33:00,
2013-03-09 14:35:00,49.6,14.2,30.20,ESE,109,0.0,3.0,24,0.00,,,0.06,Wunderground v.1.15,2013-03-09 19:35:00,
2013-03-09 14:36:00,49.9,17.2,30.20,ENE,62,3.0,3.0,27,0.00,,,0.06,Wunderground v.1.15,2013-03-09 19:36:00,
2013-03-09 14:37:00,50.1,14.7,30.20,SSE,164,3.0,3.0,24,0.00,,,0.06,Wunderground v.1.15,2013-03-09 19:37:00,
2013-03-09 14:38:00,50.2,18.3,30.20,SSE,164,1.0,3.0,28,0.00,,,0.06,Wunderground v.1.15,2013-03-09 19:38:00,
2013-03-09 14:40:00,50.4,17.6,30.20,SSE,164,0.0,1.0,27,0.00,,,0.06,Wunderground v.1.15,2013-03-09 19:40:00,
2013-03-09 14:41:00,50.5,15.9,30.20,SSE,164,0.0,1.0,25,0.00,,,0.06,Wunderground v.1.15,2013-03-09 19:41:00,
2013-03-09 14:43:00,50.7,16.1,30.20,SSE,164,0.0,1.0,25,0.00,,,0.06,Wunderground v.1.15,2013-03-09 19:43:00,
2013-03-09 14:44:00,51.0,15.4,30.20,SSE,164,0.0,1.0,24,0.00,,,0.06,Wunderground v.1.15,2013-03-09 19:44:00,
2013-03-09 14:45:00,51.1,15.5,30.20,SSE,164,0.0,1.0,24,0.00,,,0.06,Wunderground v.1.15,2013-03-09 19:45:00,
2013-03-09 14:47:00,51.4,15.8,30.20,SSE,164,0.0,1.0,24,0.00,,,0.06,Wunderground v.1.15,2013-03-09 19:47:00,
2013-03-09 14:48:00,51.6,15.0,30.20,SSE,164,0.0,1.0,23,0.00,,,0.06,Wunderground v.1.15,2013-03-09 19:48:00,
2013-03-09 14:49:00,51.6,15.0,30.19,SSW,196,2.0,2.0,23,0.00,,,0.06,Wunderground v.1.15,2013-03-09 19:49:00,
2013-03-09 14:50:00,51.4,14.8,30.19,ENE,78,4.0,4.0,23,0.00,,,0.06,Wunderground v.1.15,2013-03-09 19:50:00,
2013-03-09 14:53:00,51.4,14.8,30.19,East,89,1.0,4.0,23,0.00,,,0.06,Wunderground v.1.15,2013-03-09 19:53:00,
2013-03-09 14:54:00,51.6,18.7,30.19,East,89,1.0,4.0,27,0.00,,,0.06,Wunderground v.1.15,2013-03-09 19:54:00,
2013-03-09 14:55:00,51.6,15.9,30.19,NW,316,0.0,4.0,24,0.00,,,0.06,Wunderground v.1.15,2013-03-09 19:55:00,
2013-03-09 14:59:00,51.6,19.5,30.19,ESE,112,0.0,4.0,28,0.00,,,0.06,Wunderground v.1.15,2013-03-09 19:59:00,
2013-03-09 15:00:00,51.6,16.9,30.19,East,88,4.0,4.0,25,0.00,,,0.06,Wunderground v.1.15,2013-03-09 20:00:00,
2013-03-09 15:01:00,51.3,16.6,30.19,East,88,0.0,4.0,25,0.00,,,0.06,Wunderground v.1.15,2013-03-09 20:01:00,
2013-03-09 15:04:00,51.0,19.0,30.20,East,88,0.0,4.0,28,0.00,,,0.06,Wunderground v.1.15,2013-03-09 20:04:00,
2013-03-09 15:05:00,50.8,18.8,30.20,West,260,1.0,4.0,28,0.00,,,0.06,Wunderground v.1.15,2013-03-09 20:05:00,
2013-03-09 15:06:00,50.5,18.6,30.20,West,260,1.0,4.0,28,0.00,,,0.06,Wunderground v.1.15,2013-03-09 20:06:00,
2013-03-09 15:07:00,50.4,16.8,30.20,West,260,2.0,4.0,26,0.00,,,0.06,Wunderground v.1.15,2013-03-09 20:07:00,
2013-03-09 15:10:00,50.1,17.4,30.20,South,184,1.0,1.0,27,0.00,,,0.06,Wunderground v.1.15,2013-03-09 20:10:00,
2013-03-09 15:12:00,50.1,19.0,30.20,South,184,1.0,2.0,29,0.00,,,0.06,Wunderground v.1.15,2013-03-09 20:12:00,
2013-03-09 15:13:00,49.9,17.2,30.20,SE,134,0.0,2.0,27,0.00,,,0.06,Wunderground v.1.15,2013-03-09 20:13:00,
2013-03-09 15:15:00,49.9,18.0,30.20,SSE,151,0.0,3.0,28,0.00,,,0.06,Wunderground v.1.15,2013-03-09 20:15:00,
2013-03-09 15:16:00,49.8,18.0,30.20,NNE,23,2.0,3.0,28,0.00,,,0.06,Wunderground v.1.15,2013-03-09 20:16:00,
2013-03-09 15:17:00,49.8,17.1,30.20,NE,37,1.0,3.0,27,0.00,,,0.06,Wunderground v.1.15,2013-03-09 20:17:00,
2013-03-09 15:19:00,49.6,16.9,30.20,NE,37,0.0,3.0,27,0.00,,,0.06,Wunderground v.1.15,2013-03-09 20:19:00,
2013-03-09 15:20:00,49.8,20.3,30.20,South,178,5.0,5.0,31,0.00,,,0.06,Wunderground v.1.15,2013-03-09 20:20:00,
2013-03-09 15:21:00,49.8,17.1,30.20,South,178,1.0,5.0,27,0.00,,,0.06,Wunderground v.1.15,2013-03-09 20:21:00,
2013-03-09 15:23:00,49.8,17.1,30.20,South,178,0.0,5.0,27,0.00,,,0.06,Wunderground v.1.15,2013-03-09 20:23:00,
2013-03-09 15:24:00,49.9,18.0,30.20,South,178,0.0,5.0,28,0.00,,,0.06,Wunderground v.1.15,2013-03-09 20:24:00,
2013-03-09 15:25:00,50.1,18.2,30.20,South,178,0.0,5.0,28,0.00,,,0.06,Wunderground v.1.15,2013-03-09 20:25:00,
2013-03-09 15:27:00,50.2,19.9,30.20,South,178,0.0,5.0,30,0.00,,,0.06,Wunderground v.1.15,2013-03-09 20:27:00,
2013-03-09 15:28:00,50.2,19.9,30.20,South,178,2.0,5.0,30,0.00,,,0.06,Wunderground v.1.15,2013-03-09 20:28:00,
2013-03-09 15:29:00,50.2,19.1,30.20,South,176,2.0,5.0,29,0.00,,,0.06,Wunderground v.1.15,2013-03-09 20:29:00,
2013-03-09 15:32:00,49.9,17.2,30.20,East,79,2.0,3.0,27,0.00,,,0.06,Wunderground v.1.15,2013-03-09 20:32:00,
2013-03-09 15:33:00,49.8,17.1,30.20,East,82,2.0,3.0,27,0.00,,,0.06,Wunderground v.1.15,2013-03-09 20:33:00,
2013-03-09 15:35:00,49.6,18.6,30.20,NE,54,5.0,5.0,29,0.00,,,0.06,Wunderground v.1.15,2013-03-09 20:35:00,
2013-03-09 15:37:00,49.4,18.4,30.20,East,88,2.0,5.0,29,0.00,,,0.06,Wunderground v.1.15,2013-03-09 20:37:00,
2013-03-09 15:39:00,49.4,18.4,30.20,East,88,0.0,5.0,29,0.00,,,0.06,Wunderground v.1.15,2013-03-09 20:39:00,
2013-03-09 15:40:00,49.4,18.4,30.20,East,88,0.0,1.0,29,0.00,,,0.06,Wunderground v.1.15,2013-03-09 20:40:00,
2013-03-09 15:42:00,49.5,18.5,30.20,SSE,162,0.0,3.0,29,0.00,,,0.06,Wunderground v.1.15,2013-03-09 20:42:00,
2013-03-09 15:43:00,49.5,20.1,30.20,SSE,162,1.0,3.0,31,0.00,,,0.06,Wunderground v.1.15,2013-03-09 20:43:00,
2013-03-09 15:44:00,49.5,20.1,30.20,West,260,2.0,3.0,31,0.00,,,0.06,Wunderground v.1.15,2013-03-09 20:44:00,
2013-03-09 15:45:00,49.2,16.6,30.20,West,263,1.0,3.0,27,0.00,,,0.06,Wunderground v.1.15,2013-03-09 20:45:00,
2013-03-09 15:48:00,49.1,16.5,30.20,West,263,0.0,3.0,27,0.00,,,0.06,Wunderground v.1.15,2013-03-09 20:48:00,
2013-03-09 15:49:00,48.9,18.0,30.20,NNE,31,3.0,3.0,29,0.00,,,0.06,Wunderground v.1.15,2013-03-09 20:49:00,
2013-03-09 15:51:00,49.1,21.2,30.20,NNE,31,1.0,3.0,33,0.00,,,0.06,Wunderground v.1.15,2013-03-09 20:51:00,
2013-03-09 15:54:00,49.2,18.3,30.20,NNE,31,0.0,3.0,29,0.00,,,0.06,Wunderground v.1.15,2013-03-09 20:54:00,
2013-03-09 15:55:00,49.4,16.8,30.20,NNE,31,0.0,3.0,27,0.00,,,0.06,Wunderground v.1.15,2013-03-09 20:55:00,
2013-03-09 15:56:00,49.5,20.1,30.20,NNE,31,0.0,3.0,31,0.00,,,0.06,Wunderground v.1.15,2013-03-09 20:56:00,
2013-03-09 15:59:00,49.6,20.9,30.20,NE,34,0.0,3.0,32,0.00,,,0.06,Wunderground v.1.15,2013-03-09 20:59:00,
2013-03-09 16:00:00,49.6,20.9,30.20,NE,34,0.0,0.0,32,0.00,,,0.06,Wunderground v.1.15,2013-03-09 21:00:00,
2013-03-09 16:02:00,49.6,20.9,30.20,NE,34,1.0,1.0,32,0.00,,,0.06,Wunderground v.1.15,2013-03-09 21:02:00,
2013-03-09 16:03:00,49.6,21.6,30.20,NE,34,0.0,1.0,33,0.00,,,0.06,Wunderground v.1.15,2013-03-09 21:03:00,
2013-03-09 16:05:00,49.6,18.6,30.20,NE,34,1.0,1.0,29,0.00,,,0.06,Wunderground v.1.15,2013-03-09 21:05:00,
2013-03-09 16:08:00,49.4,17.6,30.20,NE,34,2.0,2.0,28,0.00,,,0.06,Wunderground v.1.15,2013-03-09 21:08:00,
2013-03-09 16:09:00,49.5,18.5,30.20,NE,34,0.0,2.0,29,0.00,,,0.06,Wunderground v.1.15,2013-03-09 21:09:00,
2013-03-09 16:10:00,49.4,20.0,30.20,NE,34,4.0,5.0,31,0.00,,,0.06,Wunderground v.1.15,2013-03-09 21:10:00,
2013-03-09 16:11:00,49.4,20.0,30.20,NE,34,0.0,5.0,31,0.00,,,0.06,Wunderground v.1.15,2013-03-09 21:11:00,
2013-03-09 16:13:00,49.2,19.8,30.20,NE,34,0.0,5.0,31,0.00,,,0.06,Wunderground v.1.15,2013-03-09 21:13:00,
2013-03-09 16:16:00,48.9,18.0,30.20,NE,34,0.0,5.0,29,0.00,,,0.06,Wunderground v.1.15,2013-03-09 21:16:00,
2013-03-09 16:19:00,48.8,23.0,30.21,NE,34,0.0,5.0,36,0.00,,,0.06,Wunderground v.1.15,2013-03-09 21:19:00,
2013-03-09 16:21:00,48.8,20.9,30.21,NE,34,0.0,1.0,33,0.00,,,0.06,Wunderground v.1.15,2013-03-09 21:21:00,
2013-03-09 16:22:00,48.8,20.9,30.21,NE,34,1.0,1.0,33,0.00,,,0.06,Wunderground v.1.15,2013-03-09 21:22:00,
2013-03-09 16:26:00,48.0,18.0,30.21,NE,55,0.0,3.0,30,0.00,,,0.06,Wunderground v.1.15,2013-03-09 21:26:00,
2013-03-09 16:27:00,47.7,22.7,30.21,ENE,58,0.0,3.0,37,0.00,,,0.06,Wunderground v.1.15,2013-03-09 21:27:00,
2013-03-09 16:31:00,47.4,20.4,30.21,NE,55,0.0,1.0,34,0.00,,,0.06,Wunderground v.1.15,2013-03-09 21:31:00,
2013-03-09 16:32:00,47.4,22.4,30.21,NE,55,1.0,2.0,37,0.00,,,0.06,Wunderground v.1.15,2013-03-09 21:32:00,
2013-03-09 16:37:00,47.0,20.7,30.22,NE,41,0.0,3.0,35,0.00,,,0.06,Wunderground v.1.15,2013-03-09 21:37:00,
2013-03-09 16:38:00,47.0,21.4,30.22,NE,41,0.0,3.0,36,0.00,,,0.06,Wunderground v.1.15,2013-03-09 21:38:00,
2013-03-09 16:39:00,47.0,22.7,30.22,NE,41,0.0,3.0,38,0.00,,,0.06,Wunderground v.1.15,2013-03-09 21:39:00,
2013-03-09 16:43:00,47.0,20.7,30.22,East,79,1.0,2.0,35,0.00,,,0.06,Wunderground v.1.15,2013-03-09 21:43:00,
2013-03-09 16:44:00,47.0,22.7,30.22,East,79,0.0,2.0,38,0.00,,,0.06,Wunderground v.1.15,2013-03-09 21:44:00,
2013-03-09 16:49:00,46.7,23.0,30.22,East,79,2.0,3.0,39,0.00,,,0.06,Wunderground v.1.15,2013-03-09 21:49:00,
2013-03-09 16:50:00,46.7,23.0,30.22,East,79,0.0,1.0,39,0.00,,,0.06,Wunderground v.1.15,2013-03-09 21:50:00,
2013-03-09 16:51:00,46.5,23.4,30.22,East,79,2.0,2.0,40,0.00,,,0.06,Wunderground v.1.15,2013-03-09 21:51:00,
2013-03-09 16:54:00,46.4,24.5,30.22,East,79,0.0,2.0,42,0.00,,,0.06,Wunderground v.1.15,2013-03-09 21:54:00,
2013-03-09 16:55:00,46.4,23.9,30.22,East,79,0.0,2.0,41,0.00,,,0.06,Wunderground v.1.15,2013-03-09 21:55:00,
2013-03-09 16:57:00,46.4,24.5,30.22,East,79,0.0,2.0,42,0.00,,,0.06,Wunderground v.1.15,2013-03-09 21:57:00,
2013-03-09 16:59:00,46.4,23.9,30.22,East,79,1.0,2.0,41,0.00,,,0.06,Wunderground v.1.15,2013-03-09 21:59:00,
2013-03-09 17:00:00,46.4,24.5,30.22,East,79,0.0,1.0,42,0.00,,,0.06,Wunderground v.1.15,2013-03-09 22:00:00,
2013-03-09 17:02:00,46.4,24.5,30.22,East,79,2.0,2.0,42,0.00,,,0.06,Wunderground v.1.15,2013-03-09 22:02:00,
2013-03-09 17:04:00,46.1,24.8,30.22,East,79,0.0,2.0,43,0.00,,,0.06,Wunderground v.1.15,2013-03-09 22:04:00,
2013-03-09 17:05:00,46.0,24.7,30.22,East,79,0.0,2.0,43,0.00,,,0.06,Wunderground v.1.15,2013-03-09 22:05:00,
2013-03-09 17:07:00,46.0,25.8,30.22,East,79,0.0,2.0,45,0.00,,,0.06,Wunderground v.1.15,2013-03-09 22:07:00,
2013-03-09 17:10:00,46.1,25.9,30.22,East,79,0.0,0.0,45,0.00,,,0.06,Wunderground v.1.15,2013-03-09 22:10:00,
2013-03-09 17:11:00,46.0,25.8,30.22,East,79,0.0,0.0,45,0.00,,,0.06,Wunderground v.1.15,2013-03-09 22:11:00,
2013-03-09 17:12:00,46.0,25.3,30.22,East,79,0.0,0.0,44,0.00,,,0.06,Wunderground v.1.15,2013-03-09 22:12:00,
2013-03-09 17:13:00,46.0,25.3,30.22,East,79,0.0,0.0,44,0.00,,,0.06,Wunderground v.1.15,2013-03-09 22:13:00,
2013-03-09 17:16:00,45.8,23.4,30.22,East,79,0.0,0.0,41,0.00,,,0.06,Wunderground v.1.15,2013-03-09 22:16:00,
2013-03-09 17:17:00,45.8,23.4,30.22,East,79,0.0,0.0,41,0.00,,,0.06,Wunderground v.1.15,2013-03-09 22:17:00,
2013-03-09 17:18:00,45.8,23.4,30.23,East,79,0.0,0.0,41,0.00,,,0.06,Wunderground v.1.15,2013-03-09 22:18:00,
2013-03-09 17:21:00,45.8,23.4,30.23,East,79,0.0,0.0,41,0.00,,,0.00,Wunderground v.1.15,2013-03-09 22:21:00,
2013-03-09 17:23:00,45.4,23.0,30.23,East,79,0.0,0.0,41,0.00,,,0.00,Wunderground v.1.15,2013-03-09 22:23:00,
2013-03-09 17:24:00,45.4,23.0,30.23,East,79,0.0,0.0,41,0.00,,,0.00,Wunderground v.1.15,2013-03-09 22:24:00,
2013-03-09 17:25:00,45.2,22.9,30.23,East,79,0.0,0.0,41,0.00,,,0.00,Wunderground v.1.15,2013-03-09 22:25:00,
2013-03-09 17:26:00,45.1,23.3,30.23,East,79,0.0,0.0,42,0.00,,,0.00,Wunderground v.1.15,2013-03-09 22:26:00,
2013-03-09 17:28:00,44.9,23.2,30.23,East,79,0.0,0.0,42,0.00,,,0.00,Wunderground v.1.15,2013-03-09 22:28:00,
2013-03-09 17:29:00,44.9,23.2,30.23,East,79,0.0,0.0,42,0.00,,,0.00,Wunderground v.1.15,2013-03-09 22:29:00,
2013-03-09 17:31:00,44.6,24.0,30.23,East,79,0.0,0.0,44,0.00,,,0.00,Wunderground v.1.15,2013-03-09 22:31:00,
2013-03-09 17:33:00,44.3,24.3,30.23,East,79,0.0,0.0,45,0.00,,,0.00,Wunderground v.1.15,2013-03-09 22:33:00,
2013-03-09 17:34:00,44.2,24.2,30.23,East,79,0.0,0.0,45,0.00,,,0.00,Wunderground v.1.15,2013-03-09 22:34:00,
2013-03-09 17:35:00,44.2,24.7,30.23,East,79,0.0,0.0,46,0.00,,,0.00,Wunderground v.1.15,2013-03-09 22:35:00,
2013-03-09 17:36:00,44.1,24.1,30.23,East,79,0.0,0.0,45,0.00,,,0.00,Wunderground v.1.15,2013-03-09 22:36:00,
2013-03-09 17:38:00,43.8,23.8,30.23,East,79,0.0,0.0,45,0.00,,,0.00,Wunderground v.1.15,2013-03-09 22:38:00,
2013-03-09 17:39:00,43.5,23.5,30.23,East,79,0.0,0.0,45,0.00,,,0.00,Wunderground v.1.15,2013-03-09 22:39:00,
2013-03-09 17:41:00,43.2,23.3,30.23,East,79,0.0,0.0,45,0.00,,,0.00,Wunderground v.1.15,2013-03-09 22:41:00,
2013-03-09 17:43:00,43.1,23.2,30.23,East,79,0.0,0.0,45,0.00,,,0.00,Wunderground v.1.15,2013-03-09 22:43:00,
2013-03-09 17:44:00,42.9,23.0,30.23,East,79,0.0,0.0,45,0.00,,,0.00,Wunderground v.1.15,2013-03-09 22:44:00,
2013-03-09 17:45:00,42.9,23.0,30.23,East,79,0.0,0.0,45,0.00,,,0.00,Wunderground v.1.15,2013-03-09 22:45:00,
2013-03-09 17:46:00,42.9,23.0,30.23,East,79,0.0,0.0,45,0.00,,,0.00,Wunderground v.1.15,2013-03-09 22:46:00,
2013-03-09 17:48:00,42.3,23.0,30.23,East,79,0.0,0.0,46,0.00,,,0.00,Wunderground v.1.15,2013-03-09 22:48:00,
2013-03-09 17:50:00,41.9,22.6,30.24,East,79,0.0,0.0,46,0.00,,,0.00,Wunderground v.1.15,2013-03-09 22:50:00,
2013-03-09 17:51:00,41.8,23.0,30.24,East,79,0.0,0.0,47,0.00,,,0.00,Wunderground v.1.15,2013-03-09 22:51:00,
2013-03-09 17:52:00,41.8,23.0,30.24,East,79,0.0,0.0,47,0.00,,,0.00,Wunderground v.1.15,2013-03-09 22:52:00,
2013-03-09 17:53:00,41.6,22.8,30.24,East,79,0.0,0.0,47,0.00,,,0.00,Wunderground v.1.15,2013-03-09 22:53:00,
2013-03-09 17:55:00,41.3,22.6,30.24,East,79,0.0,0.0,47,0.00,,,0.00,Wunderground v.1.15,2013-03-09 22:55:00,
2013-03-09 17:56:00,41.2,22.5,30.24,East,79,0.0,0.0,47,0.00,,,0.00,Wunderground v.1.15,2013-03-09 22:56:00,
2013-03-09 17:57:00,41.1,22.4,30.24,East,79,0.0,0.0,47,0.00,,,0.00,Wunderground v.1.15,2013-03-09 22:57:00,
2013-03-09 17:58:00,40.9,22.2,30.24,East,79,0.0,0.0,47,0.00,,,0.00,Wunderground v.1.15,2013-03-09 22:58:00,
2013-03-09 18:00:00,40.9,22.2,30.24,East,79,0.0,0.0,47,0.00,,,0.00,Wunderground v.1.15,2013-03-09 23:00:00,
2013-03-09 18:01:00,40.9,23.2,30.24,East,79,0.0,0.0,49,0.00,,,0.00,Wunderground v.1.15,2013-03-09 23:01:00,
2013-03-09 18:03:00,40.9,23.2,30.24,East,79,0.0,0.0,49,0.00,,,0.00,Wunderground v.1.15,2013-03-09 23:03:00,
2013-03-09 18:07:00,40.9,23.2,30.25,East,79,0.0,0.0,49,0.00,,,0.00,Wunderground v.1.15,2013-03-09 23:07:00,
2013-03-09 18:08:00,40.9,23.2,30.25,East,79,0.0,0.0,49,0.00,,,0.00,Wunderground v.1.15,2013-03-09 23:08:00,
2013-03-09 18:09:00,40.9,24.6,30.25,East,79,0.0,0.0,52,0.00,,,0.00,Wunderground v.1.15,2013-03-09 23:09:00,
2013-03-09 18:12:00,40.9,24.6,30.25,East,79,0.0,1.0,52,0.00,,,0.00,Wunderground v.1.15,2013-03-09 23:12:00,
2013-03-09 18:13:00,40.9,24.6,30.25,East,79,0.0,1.0,52,0.00,,,0.00,Wunderground v.1.15,2013-03-09 23:13:00,
2013-03-09 18:14:00,40.9,24.6,30.25,East,79,0.0,1.0,52,0.00,,,0.00,Wunderground v.1.15,2013-03-09 23:14:00,
2013-03-09 18:15:00,40.9,24.6,30.25,East,79,0.0,1.0,52,0.00,,,0.00,Wunderground v.1.15,2013-03-09 23:15:00,
2013-03-09 18:18:00,40.9,24.6,30.25,East,79,0.0,1.0,52,0.00,,,0.00,Wunderground v.1.15,2013-03-09 23:18:00,
2013-03-09 18:21:00,40.9,24.6,30.25,East,79,0.0,0.0,52,0.00,,,0.00,Wunderground v.1.15,2013-03-09 23:21:00,
2013-03-09 18:22:00,40.9,24.6,30.25,East,79,0.0,0.0,52,0.00,,,0.00,Wunderground v.1.15,2013-03-09 23:22:00,
2013-03-09 18:23:00,40.9,24.6,30.25,East,79,0.0,0.0,52,0.00,,,0.00,Wunderground v.1.15,2013-03-09 23:23:00,
2013-03-09 18:24:00,40.9,24.6,30.25,East,79,0.0,0.0,52,0.00,,,0.00,Wunderground v.1.15,2013-03-09 23:24:00,
2013-03-09 18:26:00,40.9,24.6,30.25,East,79,0.0,0.0,52,0.00,,,0.00,Wunderground v.1.15,2013-03-09 23:26:00,
2013-03-09 18:27:00,40.9,27.2,30.25,East,79,0.0,0.0,58,0.00,,,0.00,Wunderground v.1.15,2013-03-09 23:27:00,
2013-03-09 18:28:00,40.9,27.2,30.25,East,79,0.0,1.0,58,0.00,,,0.00,Wunderground v.1.15,2013-03-09 23:28:00,
2013-03-09 18:29:00,37.8,24.3,30.25,East,79,1.0,1.0,58,0.00,,,0.00,Wunderground v.1.15,2013-03-09 23:29:00,
2013-03-09 18:32:00,37.8,24.3,30.25,East,79,0.0,1.0,58,0.00,,,0.00,Wunderground v.1.15,2013-03-09 23:32:00,
2013-03-09 18:33:00,37.8,24.3,30.25,East,79,0.0,1.0,58,0.00,,,0.00,Wunderground v.1.15,2013-03-09 23:33:00,
2013-03-09 18:34:00,37.3,23.4,30.25,East,79,0.0,1.0,57,0.00,,,0.00,Wunderground v.1.15,2013-03-09 23:34:00,
2013-03-09 18:37:00,37.3,23.4,30.25,East,79,0.0,1.0,57,0.00,,,0.00,Wunderground v.1.15,2013-03-09 23:37:00,
2013-03-09 18:39:00,37.2,23.4,30.25,East,79,0.0,1.0,57,0.00,,,0.00,Wunderground v.1.15,2013-03-09 23:39:00,
2013-03-09 18:40:00,37.2,23.4,30.25,East,79,0.0,0.0,57,0.00,,,0.00,Wunderground v.1.15,2013-03-09 23:40:00,
2013-03-09 18:42:00,37.2,23.4,30.25,East,79,0.0,0.0,57,0.00,,,0.00,Wunderground v.1.15,2013-03-09 23:42:00,
2013-03-09 18:45:00,37.2,23.4,30.25,East,79,0.0,0.0,57,0.00,,,0.00,Wunderground v.1.15,2013-03-09 23:45:00,
2013-03-09 18:46:00,37.2,23.4,30.25,East,79,0.0,0.0,57,0.00,,,0.00,Wunderground v.1.15,2013-03-09 23:46:00,
2013-03-09 18:47:00,37.2,23.4,30.25,East,79,0.0,0.0,57,0.00,,,0.00,Wunderground v.1.15,2013-03-09 23:47:00,
2013-03-09 18:50:00,37.2,23.4,30.26,East,79,0.0,0.0,57,0.00,,,0.00,Wunderground v.1.15,2013-03-09 23:50:00,
2013-03-09 18:51:00,37.2,23.4,30.26,East,79,0.0,0.0,57,0.00,,,0.00,Wunderground v.1.15,2013-03-09 23:51:00,
2013-03-09 18:52:00,37.2,23.4,30.26,East,79,0.0,0.0,57,0.00,,,0.00,Wunderground v.1.15,2013-03-09 23:52:00,
2013-03-09 18:55:00,37.2,23.4,30.26,East,79,0.0,0.0,57,0.00,,,0.00,Wunderground v.1.15,2013-03-09 23:55:00,
2013-03-09 18:56:00,37.2,23.4,30.26,East,79,0.0,0.0,57,0.00,,,0.00,Wunderground v.1.15,2013-03-09 23:56:00,
2013-03-09 18:59:00,37.2,23.4,30.26,East,79,0.0,0.0,57,0.00,,,0.00,Wunderground v.1.15,2013-03-09 23:59:00,
2013-03-09 19:00:00,37.2,23.4,30.26,East,79,0.0,0.0,57,0.00,,,0.00,Wunderground v.1.15,2013-03-10 00:00:00,
2013-03-09 19:01:00,37.2,23.4,30.26,East,79,0.0,0.0,57,0.00,,,0.00,Wunderground v.1.15,2013-03-10 00:01:00,
2013-03-09 19:02:00,37.2,23.4,30.26,East,79,0.0,0.0,57,0.00,,,0.00,Wunderground v.1.15,2013-03-10 00:02:00,
2013-03-09 19:05:00,37.2,23.4,30.26,East,79,0.0,0.0,57,0.00,,,0.00,Wunderground v.1.15,2013-03-10 00:05:00,
2013-03-09 19:06:00,37.2,23.4,30.26,East,79,0.0,0.0,57,0.00,,,0.00,Wunderground v.1.15,2013-03-10 00:06:00,
2013-03-09 19:07:00,37.2,23.4,30.26,East,79,0.0,0.0,57,0.00,,,0.00,Wunderground v.1.15,2013-03-10 00:07:00,
2013-03-09 19:08:00,37.2,23.4,30.26,East,79,0.0,0.0,57,0.00,,,0.00,Wunderground v.1.15,2013-03-10 00:08:00,
2013-03-09 19:11:00,37.2,23.4,30.26,East,79,0.0,0.0,57,0.00,,,0.00,Wunderground v.1.15,2013-03-10 00:11:00,
2013-03-09 19:12:00,37.2,23.4,30.26,East,79,0.0,0.0,57,0.00,,,0.00,Wunderground v.1.15,2013-03-10 00:12:00,
2013-03-09 19:13:00,37.2,23.4,30.26,East,79,0.0,0.0,57,0.00,,,0.00,Wunderground v.1.15,2013-03-10 00:13:00,
2013-03-09 19:16:00,37.2,23.4,30.26,East,79,0.0,0.0,57,0.00,,,0.00,Wunderground v.1.15,2013-03-10 00:16:00,
2013-03-09 19:17:00,37.2,23.4,30.26,East,79,0.0,0.0,57,0.00,,,0.00,Wunderground v.1.15,2013-03-10 00:17:00,
2013-03-09 19:18:00,37.2,23.4,30.26,East,79,0.0,0.0,57,0.00,,,0.00,Wunderground v.1.15,2013-03-10 00:18:00,
2013-03-09 19:22:00,37.2,23.4,30.26,East,79,0.0,0.0,57,0.00,,,0.00,Wunderground v.1.15,2013-03-10 00:22:00,
2013-03-09 19:23:00,37.2,23.4,30.26,East,79,0.0,0.0,57,0.00,,,0.00,Wunderground v.1.15,2013-03-10 00:23:00,
2013-03-09 19:24:00,37.2,23.4,30.26,East,79,0.0,0.0,57,0.00,,,0.00,Wunderground v.1.15,2013-03-10 00:24:00,
2013-03-09 19:27:00,36.9,23.1,30.26,East,79,0.0,0.0,57,0.00,,,0.00,Wunderground v.1.15,2013-03-10 00:27:00,
2013-03-09 19:28:00,36.9,23.1,30.26,East,79,0.0,0.0,57,0.00,,,0.00,Wunderground v.1.15,2013-03-10 00:28:00,
2013-03-09 19:29:00,36.9,23.1,30.26,East,79,0.0,0.0,57,0.00,,,0.00,Wunderground v.1.15,2013-03-10 00:29:00,
2013-03-09 19:31:00,36.9,21.3,30.26,East,79,0.0,0.0,53,0.00,,,0.00,Wunderground v.1.15,2013-03-10 00:31:00,
2013-03-09 19:33:00,36.9,21.3,30.26,East,79,0.0,0.0,53,0.00,,,0.00,Wunderground v.1.15,2013-03-10 00:33:00,
2013-03-09 19:34:00,36.9,20.9,30.26,East,79,0.0,0.0,52,0.00,,,0.00,Wunderground v.1.15,2013-03-10 00:34:00,
2013-03-09 19:35:00,36.9,20.9,30.26,East,79,0.0,0.0,52,0.00,,,0.00,Wunderground v.1.15,2013-03-10 00:35:00,
2013-03-09 19:36:00,36.9,20.9,30.26,East,79,0.0,0.0,52,0.00,,,0.00,Wunderground v.1.15,2013-03-10 00:36:00,
2013-03-09 19:39:00,36.9,20.9,30.26,East,79,0.0,0.0,52,0.00,,,0.00,Wunderground v.1.15,2013-03-10 00:39:00,
2013-03-09 19:40:00,36.9,20.9,30.26,East,79,0.0,0.0,52,0.00,,,0.00,Wunderground v.1.15,2013-03-10 00:40:00,
2013-03-09 19:42:00,36.9,20.4,30.26,East,79,0.0,0.0,51,0.00,,,0.00,Wunderground v.1.15,2013-03-10 00:42:00,
2013-03-09 19:44:00,36.9,20.4,30.26,East,79,0.0,0.0,51,0.00,,,0.00,Wunderground v.1.15,2013-03-10 00:44:00,
2013-03-09 19:45:00,36.9,20.4,30.26,East,79,0.0,0.0,51,0.00,,,0.00,Wunderground v.1.15,2013-03-10 00:45:00,
2013-03-09 19:49:00,36.8,20.3,30.26,East,79,0.0,0.0,51,0.00,,,0.00,Wunderground v.1.15,2013-03-10 00:49:00,
2013-03-09 19:50:00,36.8,19.9,30.26,East,79,0.0,0.0,50,0.00,,,0.00,Wunderground v.1.15,2013-03-10 00:50:00,
2013-03-09 19:52:00,36.6,20.2,30.26,East,79,0.0,0.0,51,0.00,,,0.00,Wunderground v.1.15,2013-03-10 00:52:00,
2013-03-09 19:54:00,36.6,20.2,30.26,East,79,0.0,0.0,51,0.00,,,0.00,Wunderground v.1.15,2013-03-10 00:54:00,
2013-03-09 19:55:00,36.6,19.7,30.26,East,79,0.0,0.0,50,0.00,,,0.00,Wunderground v.1.15,2013-03-10 00:55:00,
2013-03-09 19:56:00,36.5,20.5,30.26,East,79,0.0,0.0,52,0.00,,,0.00,Wunderground v.1.15,2013-03-10 00:56:00,
2013-03-09 19:59:00,36.3,19.9,30.26,East,79,0.0,1.0,51,0.00,,,0.00,Wunderground v.1.15,2013-03-10 00:59:00,
2013-03-09 20:00:00,36.3,19.9,30.26,East,79,0.0,0.0,51,0.00,,,0.00,Wunderground v.1.15,2013-03-10 01:00:00,
2013-03-09 20:01:00,36.2,19.8,30.26,East,79,0.0,0.0,51,0.00,,,0.00,Wunderground v.1.15,2013-03-10 01:01:00,
2013-03-09 20:04:00,36.2,20.7,30.26,East,79,0.0,0.0,53,0.00,,,0.00,Wunderground v.1.15,2013-03-10 01:04:00,
2013-03-09 20:05:00,36.0,19.6,30.26,East,79,0.0,0.0,51,0.00,,,0.00,Wunderground v.1.15,2013-03-10 01:05:00,
2013-03-09 20:07:00,36.0,19.6,30.26,East,79,0.0,0.0,51,0.00,,,0.00,Wunderground v.1.15,2013-03-10 01:07:00,
2013-03-09 20:10:00,35.9,20.0,30.26,East,79,0.0,0.0,52,0.00,,,0.00,Wunderground v.1.15,2013-03-10 01:10:00,
2013-03-09 20:12:00,35.9,20.0,30.26,East,79,0.0,0.0,52,0.00,,,0.00,Wunderground v.1.15,2013-03-10 01:12:00,
2013-03-09 20:15:00,35.6,20.1,30.26,East,79,0.0,0.0,53,0.00,,,0.00,Wunderground v.1.15,2013-03-10 01:15:00,
2013-03-09 20:16:00,35.6,20.1,30.26,East,79,0.0,0.0,53,0.00,,,0.00,Wunderground v.1.15,2013-03-10 01:16:00,
2013-03-09 20:17:00,35.5,20.0,30.26,East,79,0.0,0.0,53,0.00,,,0.00,Wunderground v.1.15,2013-03-10 01:17:00,
2013-03-09 20:21:00,35.3,19.9,30.26,East,79,0.0,0.0,53,0.00,,,0.00,Wunderground v.1.15,2013-03-10 01:21:00,
2013-03-09 20:22:00,35.3,20.3,30.26,East,79,0.0,0.0,54,0.00,,,0.00,Wunderground v.1.15,2013-03-10 01:22:00,
2013-03-09 20:23:00,35.3,20.3,30.26,East,79,0.0,0.0,54,0.00,,,0.00,Wunderground v.1.15,2013-03-10 01:23:00,
2013-03-09 20:27:00,35.2,20.2,30.26,East,79,0.0,0.0,54,0.00,,,0.00,Wunderground v.1.15,2013-03-10 01:27:00,
2013-03-09 20:28:00,35.2,20.2,30.26,East,79,0.0,0.0,54,0.00,,,0.00,Wunderground v.1.15,2013-03-10 01:28:00,
2013-03-09 20:32:00,35.2,20.6,30.26,East,79,0.0,0.0,55,0.00,,,0.00,Wunderground v.1.15,2013-03-10 01:32:00,
2013-03-09 20:33:00,35.2,20.6,30.26,East,79,0.0,0.0,55,0.00,,,0.00,Wunderground v.1.15,2013-03-10 01:33:00,
2013-03-09 20:37:00,35.0,19.1,30.25,East,79,0.0,0.0,52,0.00,,,0.00,Wunderground v.1.15,2013-03-10 01:37:00,
2013-03-09 20:38:00,35.2,19.3,30.25,East,79,0.0,0.0,52,0.00,,,0.00,Wunderground v.1.15,2013-03-10 01:38:00,
2013-03-09 20:39:00,35.2,19.3,30.25,East,79,0.0,0.0,52,0.00,,,0.00,Wunderground v.1.15,2013-03-10 01:39:00,
2013-03-09 20:42:00,35.0,20.0,30.25,East,79,0.0,0.0,54,0.00,,,0.00,Wunderground v.1.15,2013-03-10 01:42:00,
2013-03-09 20:43:00,35.0,20.0,30.25,East,79,0.0,0.0,54,0.00,,,0.00,Wunderground v.1.15,2013-03-10 01:43:00,
2013-03-09 20:45:00,35.0,20.0,30.25,East,79,0.0,0.0,54,0.00,,,0.00,Wunderground v.1.15,2013-03-10 01:45:00,
2013-03-09 20:49:00,35.0,20.0,30.25,East,79,0.0,0.0,54,0.00,,,0.00,Wunderground v.1.15,2013-03-10 01:49:00,
2013-03-09 20:50:00,35.0,20.0,30.25,East,79,0.0,0.0,54,0.00,,,0.00,Wunderground v.1.15,2013-03-10 01:50:00,
2013-03-09 20:51:00,35.0,20.0,30.25,East,79,0.0,0.0,54,0.00,,,0.00,Wunderground v.1.15,2013-03-10 01:51:00,
2013-03-09 20:54:00,34.9,20.4,30.25,East,79,0.0,0.0,55,0.00,,,0.00,Wunderground v.1.15,2013-03-10 01:54:00,
2013-03-09 20:57:00,34.9,20.8,30.25,East,79,0.0,0.0,56,0.00,,,0.00,Wunderground v.1.15,2013-03-10 01:57:00,
2013-03-09 21:00:00,34.7,20.6,30.25,East,79,0.0,0.0,56,0.00,,,0.00,Wunderground v.1.15,2013-03-10 02:00:00,
2013-03-09 21:01:00,34.7,20.6,30.25,East,79,0.0,0.0,56,0.00,,,0.00,Wunderground v.1.15,2013-03-10 02:01:00,
2013-03-09 21:02:00,34.7,20.2,30.25,East,79,0.0,0.0,55,0.00,,,0.00,Wunderground v.1.15,2013-03-10 02:02:00,
2013-03-09 21:05:00,34.7,21.0,30.25,East,79,0.0,0.0,57,0.00,,,0.00,Wunderground v.1.15,2013-03-10 02:05:00,
2013-03-09 21:07:00,34.6,20.9,30.25,East,79,0.0,0.0,57,0.00,,,0.00,Wunderground v.1.15,2013-03-10 02:07:00,
2013-03-09 21:08:00,34.6,20.9,30.25,East,79,0.0,0.0,57,0.00,,,0.00,Wunderground v.1.15,2013-03-10 02:08:00,
2013-03-09 21:11:00,34.4,20.3,30.25,East,79,0.0,0.0,56,0.00,,,0.00,Wunderground v.1.15,2013-03-10 02:11:00,
2013-03-09 21:13:00,34.4,19.9,30.25,East,79,0.0,0.0,55,0.00,,,0.00,Wunderground v.1.15,2013-03-10 02:13:00,
2013-03-09 21:14:00,34.4,20.3,30.25,East,79,0.0,0.0,56,0.00,,,0.00,Wunderground v.1.15,2013-03-10 02:14:00,
2013-03-09 21:16:00,34.4,19.9,30.25,East,79,0.0,0.0,55,0.00,,,0.00,Wunderground v.1.15,2013-03-10 02:16:00,
2013-03-09 21:18:00,34.4,20.3,30.25,East,79,0.0,0.0,56,0.00,,,0.00,Wunderground v.1.15,2013-03-10 02:18:00,
2013-03-09 21:19:00,34.3,20.2,30.25,East,79,0.0,0.0,56,0.00,,,0.00,Wunderground v.1.15,2013-03-10 02:19:00,
2013-03-09 21:20:00,34.3,20.2,30.25,East,79,0.0,0.0,56,0.00,,,0.00,Wunderground v.1.15,2013-03-10 02:20:00,
2013-03-09 21:22:00,34.3,20.2,30.25,East,79,0.0,0.0,56,0.00,,,0.00,Wunderground v.1.15,2013-03-10 02:22:00,
2013-03-09 21:23:00,34.3,20.2,30.25,East,79,0.0,0.0,56,0.00,,,0.00,Wunderground v.1.15,2013-03-10 02:23:00,
2013-03-09 21:25:00,34.3,20.2,30.25,East,79,0.0,0.0,56,0.00,,,0.00,Wunderground v.1.15,2013-03-10 02:25:00,
2013-03-09 21:26:00,34.3,20.2,30.25,East,79,0.0,0.0,56,0.00,,,0.00,Wunderground v.1.15,2013-03-10 02:26:00,
2013-03-09 21:27:00,34.3,20.6,30.25,East,79,0.0,0.0,57,0.00,,,0.00,Wunderground v.1.15,2013-03-10 02:27:00,
2013-03-09 21:28:00,34.3,21.0,30.25,East,79,0.0,0.0,58,0.00,,,0.00,Wunderground v.1.15,2013-03-10 02:28:00,
2013-03-09 21:30:00,34.1,20.9,30.25,East,79,0.0,0.0,58,0.00,,,0.00,Wunderground v.1.15,2013-03-10 02:30:00,
2013-03-09 21:31:00,34.1,20.9,30.25,East,79,0.0,0.0,58,0.00,,,0.00,Wunderground v.1.15,2013-03-10 02:31:00,
2013-03-09 21:33:00,34.1,20.9,30.25,East,79,0.0,0.0,58,0.00,,,0.00,Wunderground v.1.15,2013-03-10 02:33:00,
2013-03-09 21:37:00,34.0,20.8,30.24,East,79,0.0,0.0,58,0.00,,,0.00,Wunderground v.1.15,2013-03-10 02:37:00,
2013-03-09 21:39:00,33.8,20.6,30.24,East,79,0.0,0.0,58,0.00,,,0.00,Wunderground v.1.15,2013-03-10 02:39:00,
2013-03-09 21:42:00,33.8,21.0,30.24,East,79,0.0,0.0,59,0.00,,,0.00,Wunderground v.1.15,2013-03-10 02:42:00,
2013-03-09 21:44:00,33.7,20.5,30.24,East,79,0.0,0.0,58,0.00,,,0.00,Wunderground v.1.15,2013-03-10 02:44:00,
2013-03-09 21:48:00,33.7,21.3,30.24,East,79,0.0,0.0,60,0.00,,,0.00,Wunderground v.1.15,2013-03-10 02:48:00,
2013-03-09 21:49:00,33.5,21.1,30.24,East,79,0.0,0.0,60,0.00,,,0.00,Wunderground v.1.15,2013-03-10 02:49:00,
2013-03-09 21:50:00,33.5,21.1,30.24,East,79,0.0,0.0,60,0.00,,,0.00,Wunderground v.1.15,2013-03-10 02:50:00,
2013-03-09 21:54:00,33.4,21.0,30.24,East,79,0.0,0.0,60,0.00,,,0.00,Wunderground v.1.15,2013-03-10 02:54:00,
2013-03-09 21:55:00,33.4,21.4,30.24,East,79,0.0,0.0,61,0.00,,,0.00,Wunderground v.1.15,2013-03-10 02:55:00,
2013-03-09 21:56:00,33.4,21.0,30.24,East,79,0.0,0.0,60,0.00,,,0.00,Wunderground v.1.15,2013-03-10 02:56:00,
2013-03-09 22:00:00,33.2,20.8,30.24,East,79,0.0,0.0,60,0.00,,,0.00,Wunderground v.1.15,2013-03-10 03:00:00,
2013-03-09 22:01:00,33.2,21.2,30.24,East,79,0.0,0.0,61,0.00,,,0.00,Wunderground v.1.15,2013-03-10 03:01:00,
2013-03-09 22:05:00,33.1,21.1,30.24,East,79,0.0,0.0,61,0.00,,,0.00,Wunderground v.1.15,2013-03-10 03:05:00,
2013-03-09 22:06:00,33.1,21.1,30.24,East,79,0.0,0.0,61,0.00,,,0.00,Wunderground v.1.15,2013-03-10 03:06:00,
2013-03-09 22:08:00,33.1,21.1,30.24,East,79,0.0,0.0,61,0.00,,,0.00,Wunderground v.1.15,2013-03-10 03:08:00,
2013-03-09 22:10:00,33.1,21.1,30.24,East,79,0.0,0.0,61,0.00,,,0.00,Wunderground v.1.15,2013-03-10 03:10:00,
2013-03-09 22:11:00,33.1,21.1,30.24,East,79,0.0,0.0,61,0.00,,,0.00,Wunderground v.1.15,2013-03-10 03:11:00,
2013-03-09 22:13:00,33.1,21.1,30.24,East,79,0.0,0.0,61,0.00,,,0.00,Wunderground v.1.15,2013-03-10 03:13:00,
2013-03-09 22:16:00,33.1,21.1,30.24,East,79,0.0,0.0,61,0.00,,,0.00,Wunderground v.1.15,2013-03-10 03:16:00,
2013-03-09 22:18:00,33.1,21.1,30.24,East,79,0.0,0.0,61,0.00,,,0.00,Wunderground v.1.15,2013-03-10 03:18:00,
2013-03-09 22:19:00,32.9,20.9,30.24,East,79,0.0,0.0,61,0.00,,,0.00,Wunderground v.1.15,2013-03-10 03:19:00,
2013-03-09 22:21:00,32.9,20.9,30.24,East,79,0.0,0.0,61,0.00,,,0.00,Wunderground v.1.15,2013-03-10 03:21:00,
2013-03-09 22:23:00,32.8,20.8,30.24,East,79,0.0,0.0,61,0.00,,,0.00,Wunderground v.1.15,2013-03-10 03:23:00,
2013-03-09 22:25:00,32.8,20.8,30.24,East,79,0.0,0.0,61,0.00,,,0.00,Wunderground v.1.15,2013-03-10 03:25:00,
2013-03-09 22:27:00,32.8,20.8,30.24,East,79,0.0,0.0,61,0.00,,,0.00,Wunderground v.1.15,2013-03-10 03:27:00,
2013-03-09 22:28:00,32.8,20.8,30.24,East,79,0.0,0.0,61,0.00,,,0.00,Wunderground v.1.15,2013-03-10 03:28:00,
2013-03-09 22:29:00,32.9,20.9,30.24,East,79,0.0,0.0,61,0.00,,,0.00,Wunderground v.1.15,2013-03-10 03:29:00,
2013-03-09 22:30:00,32.9,20.5,30.24,East,79,0.0,0.0,60,0.00,,,0.00,Wunderground v.1.15,2013-03-10 03:30:00,
2013-03-09 22:32:00,32.9,20.5,30.24,East,79,0.0,0.0,60,0.00,,,0.00,Wunderground v.1.15,2013-03-10 03:32:00,
2013-03-09 22:33:00,32.9,20.5,30.23,East,79,0.0,0.0,60,0.00,,,0.00,Wunderground v.1.15,2013-03-10 03:33:00,
2013-03-09 22:34:00,32.9,20.5,30.23,East,79,0.0,0.0,60,0.00,,,0.00,Wunderground v.1.15,2013-03-10 03:34:00,
2013-03-09 22:35:00,32.9,20.5,30.23,East,79,0.0,0.0,60,0.00,,,0.00,Wunderground v.1.15,2013-03-10 03:35:00,
2013-03-09 22:38:00,32.9,20.5,30.23,East,79,0.0,0.0,60,0.00,,,0.00,Wunderground v.1.15,2013-03-10 03:38:00,
2013-03-09 22:39:00,32.9,20.5,30.23,East,79,0.0,0.0,60,0.00,,,0.00,Wunderground v.1.15,2013-03-10 03:39:00,
2013-03-09 22:40:00,32.9,20.5,30.23,East,79,0.0,0.0,60,0.00,,,0.00,Wunderground v.1.15,2013-03-10 03:40:00,
2013-03-09 22:42:00,32.9,20.5,30.23,East,79,0.0,0.0,60,0.00,,,0.00,Wunderground v.1.15,2013-03-10 03:42:00,
2013-03-09 22:43:00,32.9,20.5,30.23,East,79,0.0,0.0,60,0.00,,,0.00,Wunderground v.1.15,2013-03-10 03:43:00,
2013-03-09 22:45:00,32.9,20.5,30.23,East,79,0.0,0.0,60,0.00,,,0.00,Wunderground v.1.15,2013-03-10 03:45:00,
2013-03-09 22:46:00,32.9,20.5,30.23,East,79,0.0,0.0,60,0.00,,,0.00,Wunderground v.1.15,2013-03-10 03:46:00,
2013-03-09 22:47:00,32.9,20.5,30.23,East,79,0.0,0.0,60,0.00,,,0.00,Wunderground v.1.15,2013-03-10 03:47:00,
2013-03-09 22:48:00,32.9,20.5,30.23,East,79,0.0,0.0,60,0.00,,,0.00,Wunderground v.1.15,2013-03-10 03:48:00,
2013-03-09 22:50:00,32.9,20.5,30.23,East,79,0.0,0.0,60,0.00,,,0.00,Wunderground v.1.15,2013-03-10 03:50:00,
2013-03-09 22:51:00,32.9,20.5,30.23,East,79,0.0,0.0,60,0.00,,,0.00,Wunderground v.1.15,2013-03-10 03:51:00,
2013-03-09 22:53:00,32.9,20.5,30.23,East,79,0.0,0.0,60,0.00,,,0.00,Wunderground v.1.15,2013-03-10 03:53:00,
2013-03-09 22:54:00,32.9,20.5,30.23,East,79,0.0,0.0,60,0.00,,,0.00,Wunderground v.1.15,2013-03-10 03:54:00,
2013-03-09 22:56:00,33.1,20.7,30.23,East,79,0.0,0.0,60,0.00,,,0.00,Wunderground v.1.15,2013-03-10 03:56:00,
2013-03-09 22:58:00,33.1,20.7,30.23,East,79,0.0,0.0,60,0.00,,,0.00,Wunderground v.1.15,2013-03-10 03:58:00,
2013-03-09 22:59:00,33.1,20.7,30.23,East,79,0.0,0.0,60,0.00,,,0.00,Wunderground v.1.15,2013-03-10 03:59:00,
2013-03-09 23:01:00,33.1,20.7,30.23,East,79,0.0,0.0,60,0.00,,,0.00,Wunderground v.1.15,2013-03-10 04:01:00,
2013-03-09 23:03:00,33.1,20.3,30.23,East,79,0.0,0.0,59,0.00,,,0.00,Wunderground v.1.15,2013-03-10 04:03:00,
2013-03-09 23:04:00,33.1,20.3,30.23,East,79,0.0,0.0,59,0.00,,,0.00,Wunderground v.1.15,2013-03-10 04:04:00,
2013-03-09 23:06:00,33.1,20.3,30.23,East,79,0.0,0.0,59,0.00,,,0.00,Wunderground v.1.15,2013-03-10 04:06:00,
2013-03-09 23:07:00,33.1,20.3,30.23,East,79,0.0,0.0,59,0.00,,,0.00,Wunderground v.1.15,2013-03-10 04:07:00,
2013-03-09 23:09:00,33.1,20.3,30.23,East,79,0.0,0.0,59,0.00,,,0.00,Wunderground v.1.15,2013-03-10 04:09:00,
2013-03-09 23:10:00,32.9,20.5,30.23,East,79,0.0,0.0,60,0.00,,,0.00,Wunderground v.1.15,2013-03-10 04:10:00,
2013-03-09 23:11:00,32.9,20.5,30.23,East,79,0.0,0.0,60,0.00,,,0.00,Wunderground v.1.15,2013-03-10 04:11:00,
2013-03-09 23:12:00,32.9,20.5,30.23,East,79,0.0,0.0,60,0.00,,,0.00,Wunderground v.1.15,2013-03-10 04:12:00,
2013-03-09 23:14:00,32.9,20.1,30.23,East,79,0.0,0.0,59,0.00,,,0.00,Wunderground v.1.15,2013-03-10 04:14:00,
2013-03-09 23:16:00,32.9,20.1,30.23,East,79,0.0,0.0,59,0.00,,,0.00,Wunderground v.1.15,2013-03-10 04:16:00,
2013-03-09 23:17:00,32.9,20.1,30.23,East,79,0.0,0.0,59,0.00,,,0.00,Wunderground v.1.15,2013-03-10 04:17:00,
2013-03-09 23:20:00,32.9,20.1,30.23,East,79,0.0,0.0,59,0.00,,,0.00,Wunderground v.1.15,2013-03-10 04:20:00,
2013-03-09 23:21:00,32.9,20.1,30.23,East,79,0.0,0.0,59,0.00,,,0.00,Wunderground v.1.15,2013-03-10 04:21:00,
2013-03-09 23:22:00,32.9,20.1,30.23,East,79,0.0,0.0,59,0.00,,,0.00,Wunderground v.1.15,2013-03-10 04:22:00,
2013-03-09 23:23:00,32.9,20.1,30.23,East,79,0.0,0.0,59,0.00,,,0.00,Wunderground v.1.15,2013-03-10 04:23:00,
2013-03-09 23:25:00,32.9,20.1,30.23,East,79,0.0,0.0,59,0.00,,,0.00,Wunderground v.1.15,2013-03-10 04:25:00,
2013-03-09 23:27:00,32.9,20.1,30.23,East,79,0.0,0.0,59,0.00,,,0.00,Wunderground v.1.15,2013-03-10 04:27:00,
2013-03-09 23:28:00,32.9,20.1,30.23,East,79,0.0,0.0,59,0.00,,,0.00,Wunderground v.1.15,2013-03-10 04:28:00,
2013-03-09 23:31:00,32.9,20.1,30.23,East,79,0.0,0.0,59,0.00,,,0.00,Wunderground v.1.15,2013-03-10 04:31:00,
2013-03-09 23:32:00,32.9,20.1,30.23,East,79,0.0,0.0,59,0.00,,,0.00,Wunderground v.1.15,2013-03-10 04:32:00,
2013-03-09 23:33:00,32.9,20.1,30.23,East,79,0.0,0.0,59,0.00,,,0.00,Wunderground v.1.15,2013-03-10 04:33:00,
2013-03-09 23:36:00,32.9,20.1,30.23,East,79,0.0,0.0,59,0.00,,,0.00,Wunderground v.1.15,2013-03-10 04:36:00,
2013-03-09 23:38:00,32.9,20.1,30.23,East,79,0.0,0.0,59,0.00,,,0.00,Wunderground v.1.15,2013-03-10 04:38:00,
2013-03-09 23:39:00,32.9,20.1,30.23,East,79,0.0,0.0,59,0.00,,,0.00,Wunderground v.1.15,2013-03-10 04:39:00,
2013-03-09 23:40:00,32.9,20.1,30.23,East,79,0.0,0.0,59,0.00,,,0.00,Wunderground v.1.15,2013-03-10 04:40:00,
2013-03-09 23:42:00,32.9,20.1,30.23,East,79,0.0,0.0,59,0.00,,,0.00,Wunderground v.1.15,2013-03-10 04:42:00,
2013-03-09 23:44:00,32.9,20.1,30.23,East,79,0.0,0.0,59,0.00,,,0.00,Wunderground v.1.15,2013-03-10 04:44:00,
2013-03-09 23:45:00,32.9,20.1,30.23,East,79,0.0,0.0,59,0.00,,,0.00,Wunderground v.1.15,2013-03-10 04:45:00,
2013-03-09 23:47:00,32.9,20.1,30.23,East,79,0.0,0.0,59,0.00,,,0.00,Wunderground v.1.15,2013-03-10 04:47:00,
2013-03-09 23:49:00,32.9,20.1,30.23,East,79,0.0,0.0,59,0.00,,,0.00,Wunderground v.1.15,2013-03-10 04:49:00,
2013-03-09 23:51:00,32.9,20.1,30.23,East,79,0.0,0.0,59,0.00,,,0.00,Wunderground v.1.15,2013-03-10 04:51:00,
2013-03-09 23:52:00,32.9,20.1,30.23,East,79,0.0,0.0,59,0.00,,,0.00,Wunderground v.1.15,2013-03-10 04:52:00,
2013-03-09 23:53:00,32.9,20.1,30.23,East,79,0.0,0.0,59,0.00,,,0.00,Wunderground v.1.15,2013-03-10 04:53:00,
2013-03-09 23:54:00,32.7,19.9,30.23,East,79,0.0,0.0,59,0.00,,,0.00,Wunderground v.1.15,2013-03-10 04:54:00,
2013-03-09 23:57:00,32.7,19.9,30.23,East,79,0.0,0.0,59,0.00,,,0.00,Wunderground v.1.15,2013-03-10 04:57:00,
2013-03-09 23:58:00,32.7,19.9,30.23,East,79,0.0,0.0,59,0.00,,,0.00,Wunderground v.1.15,2013-03-10 04:58:00,
2013-03-09 23:59:00,32.7,19.9,30.23,East,79,0.0,0.0,59,0.00,,,0.00,Wunderground v.1.15,2013-03-10 04:59:00,